Observation data for Palo Duro Canyon State Park Floor on 07/11/2018      Previous  Date       Current Mesonet Observations  Soil Data  Daily Summary Page  Observations in Plain Language
KPD2 110501Z 12005KT 26/16 A3012 RMK A01 T02630162  RH  054%=      5-min Rain = 0
KPD2 110502Z 12006KT 26/16 A3012 RMK A01 T02630162  RH  054%=      5-min Rain = 0
KPD2 110503Z 13006KT 26/16 A3012 RMK A01 T02630163  RH  054%=      5-min Rain = 0
KPD2 110504Z 13006KT 26/16 A3012 RMK A01 T02630163  RH  054%=      5-min Rain = 0
KPD2 110505Z 13006KT 26/16 A3012 RMK A01 T02630163  RH  054%=      5-min Rain = 0
KPD2 110506Z 13006KT 26/16 A3012 RMK A01 T02630164  RH  054%=      5-min Rain = 0
KPD2 110507Z 14007KT 26/16 A3012 RMK A01 T02620164  RH  055%=      5-min Rain = 0
KPD2 110508Z 14006KT 26/16 A3012 RMK A01 T02620164  RH  055%=      5-min Rain = 0
KPD2 110509Z 14007KT 26/16 A3012 RMK A01 T02620164  RH  055%=      5-min Rain = 0
KPD2 110510Z 13005KT 26/16 A3012 RMK A01 T02620164  RH  055%=      5-min Rain = 0
KPD2 110511Z 14004KT 26/17 A3012 RMK A01 T02630165  RH  055%=      5-min Rain = 0
KPD2 110512Z 14005KT 26/16 A3012 RMK A01 T02630164  RH  055%=      5-min Rain = 0
KPD2 110513Z 14005KT 26/17 A3012 RMK A01 T02620165  RH  055%=      5-min Rain = 0
KPD2 110514Z 13005KT 26/17 A3012 RMK A01 T02620165  RH  055%=      5-min Rain = 0
KPD2 110515Z 13006KT 26/16 A3012 RMK A01 T02620164  RH  055%=      5-min Rain = 0
KPD2 110516Z 13006KT 26/16 A3012 RMK A01 T02620164  RH  055%=      5-min Rain = 0
KPD2 110517Z 12006KT 26/16 A3012 RMK A01 T02610164  RH  055%=      5-min Rain = 0
KPD2 110518Z 13005KT 26/16 A3012 RMK A01 T02610164  RH  055%=      5-min Rain = 0
KPD2 110519Z 13006KT 26/17 A3013 RMK A01 T02610165  RH  055%=      5-min Rain = 0
KPD2 110520Z 13005KT 26/17 A3013 RMK A01 T02610165  RH  055%=      5-min Rain = 0
KPD2 110521Z 13004KT 26/17 A3013 RMK A01 T02610165  RH  055%=      5-min Rain = 0
KPD2 110522Z 14004KT 26/16 A3013 RMK A01 T02610164  RH  055%=      5-min Rain = 0
KPD2 110523Z 13004KT 26/17 A3013 RMK A01 T02610165  RH  055%=      5-min Rain = 0
KPD2 110524Z 13005KT 26/17 A3013 RMK A01 T02610165  RH  055%=      5-min Rain = 0
KPD2 110525Z 13004KT 26/17 A3013 RMK A01 T02610165  RH  056%=      5-min Rain = 0
KPD2 110526Z 12004KT 26/17 A3013 RMK A01 T02600165  RH  056%=      5-min Rain = 0
KPD2 110527Z 12004KT 26/16 A3013 RMK A01 T02600164  RH  056%=      5-min Rain = 0
KPD2 110528Z 12004KT 26/17 A3013 RMK A01 T02600165  RH  056%=      5-min Rain = 0
KPD2 110529Z 12003KT 26/17 A3013 RMK A01 T02600165  RH  056%=      5-min Rain = 0
KPD2 110530Z 12002KT 26/16 A3013 RMK A01 T02600164  RH  056%=      5-min Rain = 0
KPD2 110531Z 12004KT 26/17 A3013 RMK A01 T02600165  RH  056%=      5-min Rain = 0
KPD2 110532Z 13004KT 26/17 A3013 RMK A01 T02600165  RH  056%=      5-min Rain = 0
KPD2 110533Z 13005KT 26/17 A3013 RMK A01 T02600165  RH  056%=      5-min Rain = 0
KPD2 110534Z 13005KT 26/17 A3013 RMK A01 T02600165  RH  056%=      5-min Rain = 0
KPD2 110535Z 12003KT 26/17 A3013 RMK A01 T02600165  RH  056%=      5-min Rain = 0
KPD2 110536Z 13005KT 26/17 A3013 RMK A01 T02600165  RH  056%=      5-min Rain = 0
KPD2 110537Z 12005KT 26/17 A3013 RMK A01 T02600166  RH  056%=      5-min Rain = 0
KPD2 110538Z 12004KT 26/17 A3013 RMK A01 T02600166  RH  056%=      5-min Rain = 0
KPD2 110539Z 12005KT 26/17 A3013 RMK A01 T02600166  RH  056%=      5-min Rain = 0
KPD2 110540Z 12006KT 26/17 A3013 RMK A01 T02590166  RH  056%=      5-min Rain = 0
KPD2 110541Z 13006KT 26/17 A3013 RMK A01 T02590166  RH  056%=      5-min Rain = 0
KPD2 110542Z 12005KT 26/17 A3013 RMK A01 T02590166  RH  056%=      5-min Rain = 0
KPD2 110543Z 12004KT 26/17 A3013 RMK A01 T02590166  RH  056%=      5-min Rain = 0
KPD2 110544Z 12005KT 26/17 A3013 RMK A01 T02590166  RH  056%=      5-min Rain = 0
KPD2 110545Z 12005KT 26/17 A3013 RMK A01 T02590166  RH  057%=      5-min Rain = 0
KPD2 110546Z 13005KT 26/17 A3013 RMK A01 T02580166  RH  057%=      5-min Rain = 0
KPD2 110547Z 14004KT 26/17 A3013 RMK A01 T02580166  RH  057%=      5-min Rain = 0
KPD2 110548Z 12004KT 26/17 A3013 RMK A01 T02580167  RH  057%=      5-min Rain = 0
KPD2 110549Z 12004KT 26/17 A3013 RMK A01 T02580166  RH  057%=      5-min Rain = 0
KPD2 110550Z 11005KT 26/17 A3013 RMK A01 T02580166  RH  057%=      5-min Rain = 0
KPD2 110551Z 13005KT 26/17 A3013 RMK A01 T02580166  RH  057%=      5-min Rain = 0
KPD2 110552Z 12006KT 26/17 A3013 RMK A01 T02580167  RH  057%=      5-min Rain = 0
KPD2 110553Z 13007KT 26/17 A3013 RMK A01 T02580166  RH  057%=      5-min Rain = 0
KPD2 110554Z 13005KT 26/17 A3013 RMK A01 T02580167  RH  057%=      5-min Rain = 0
KPD2 110555Z 13005KT 26/17 A3013 RMK A01 T02580167  RH  057%=      5-min Rain = 0
KPD2 110556Z 12005KT 26/17 A3013 RMK A01 T02580167  RH  057%=      5-min Rain = 0
KPD2 110557Z 13006KT 26/17 A3013 RMK A01 T02590167  RH  057%=      5-min Rain = 0
KPD2 110558Z 13004KT 26/17 A3013 RMK A01 T02580167  RH  057%=      5-min Rain = 0
KPD2 110559Z 13005KT 26/17 A3013 RMK A01 T02580167  RH  057%=      5-min Rain = 0
KPD2 110600Z 13005KT 26/17 A3013 RMK A01 T02580167  RH  057%=      5-min Rain = 0
KPD2 110601Z 14005KT 26/17 A3013 RMK A01 T02580167  RH  057%=      5-min Rain = 0
KPD2 110602Z 13005KT 26/17 A3013 RMK A01 T02570167  RH  057%=      5-min Rain = 0
KPD2 110603Z 13005KT 26/17 A3013 RMK A01 T02570167  RH  057%=      5-min Rain = 0
KPD2 110604Z 13004KT 26/17 A3013 RMK A01 T02560166  RH  058%=      5-min Rain = 0
KPD2 110605Z 13005KT 26/17 A3013 RMK A01 T02560166  RH  058%=      5-min Rain = 0
KPD2 110606Z 13004KT 26/17 A3013 RMK A01 T02560166  RH  058%=      5-min Rain = 0
KPD2 110607Z 14005KT 26/17 A3013 RMK A01 T02560167  RH  058%=      5-min Rain = 0
KPD2 110608Z 14005KT 26/17 A3013 RMK A01 T02550166  RH  058%=      5-min Rain = 0
KPD2 110609Z 14004KT 26/17 A3013 RMK A01 T02560167  RH  058%=      5-min Rain = 0
KPD2 110610Z 14004KT 26/17 A3013 RMK A01 T02550166  RH  058%=      5-min Rain = 0
KPD2 110611Z 13005KT 26/17 A3013 RMK A01 T02550166  RH  058%=      5-min Rain = 0
KPD2 110612Z 13005KT 26/17 A3013 RMK A01 T02560166  RH  058%=      5-min Rain = 0
KPD2 110613Z 13005KT 26/17 A3013 RMK A01 T02550166  RH  058%=      5-min Rain = 0
KPD2 110614Z 13005KT 26/17 A3013 RMK A01 T02560167  RH  058%=      5-min Rain = 0
KPD2 110615Z 13005KT 26/17 A3013 RMK A01 T02550167  RH  058%=      5-min Rain = 0
KPD2 110616Z 12005KT 26/17 A3013 RMK A01 T02550167  RH  058%=      5-min Rain = 0
KPD2 110617Z 12004KT 26/17 A3013 RMK A01 T02550167  RH  058%=      5-min Rain = 0
KPD2 110618Z 12005KT 25/17 A3013 RMK A01 T02540166  RH  058%=      5-min Rain = 0
KPD2 110619Z 12005KT 25/17 A3013 RMK A01 T02540166  RH  058%=      5-min Rain = 0
KPD2 110620Z 12004KT 25/17 A3013 RMK A01 T02540166  RH  058%=      5-min Rain = 0
KPD2 110621Z 12005KT 25/17 A3013 RMK A01 T02540166  RH  058%=      5-min Rain = 0
KPD2 110622Z 12005KT 25/17 A3013 RMK A01 T02540166  RH  058%=      5-min Rain = 0
KPD2 110623Z 12005KT 25/17 A3013 RMK A01 T02540166  RH  058%=      5-min Rain = 0
KPD2 110624Z 12004KT 25/17 A3013 RMK A01 T02540166  RH  058%=      5-min Rain = 0
KPD2 110625Z 12004KT 25/17 A3013 RMK A01 T02540166  RH  058%=      5-min Rain = 0
KPD2 110626Z 12005KT 25/17 A3013 RMK A01 T02540166  RH  058%=      5-min Rain = 0
KPD2 110627Z 12004KT 25/17 A3013 RMK A01 T02540166  RH  058%=      5-min Rain = 0
KPD2 110628Z 12004KT 25/17 A3013 RMK A01 T02530166  RH  058%=      5-min Rain = 0
KPD2 110629Z 13004KT 25/17 A3013 RMK A01 T02530166  RH  058%=      5-min Rain = 0
KPD2 110630Z 13006KT 25/17 A3013 RMK A01 T02530166  RH  058%=      5-min Rain = 0
KPD2 110631Z 13005KT 25/17 A3013 RMK A01 T02530166  RH  058%=      5-min Rain = 0
KPD2 110632Z 13006KT 25/17 A3013 RMK A01 T02530166  RH  059%=      5-min Rain = 0
KPD2 110633Z 13005KT 25/17 A3013 RMK A01 T02530166  RH  059%=      5-min Rain = 0
KPD2 110634Z 14003KT 25/17 A3013 RMK A01 T02530166  RH  058%=      5-min Rain = 0
KPD2 110635Z 12003KT 25/17 A3013 RMK A01 T02530165  RH  058%=      5-min Rain = 0
KPD2 110636Z 11004KT 25/17 A3013 RMK A01 T02530165  RH  058%=      5-min Rain = 0
KPD2 110637Z 11004KT 25/17 A3013 RMK A01 T02530165  RH  058%=      5-min Rain = 0
KPD2 110638Z 11003KT 25/17 A3013 RMK A01 T02530165  RH  058%=      5-min Rain = 0
KPD2 110639Z 15003KT 25/17 A3013 RMK A01 T02530165  RH  058%=      5-min Rain = 0
KPD2 110640Z 14004KT 25/17 A3013 RMK A01 T02530165  RH  058%=      5-min Rain = 0
KPD2 110641Z 13004KT 25/17 A3013 RMK A01 T02540165  RH  058%=      5-min Rain = 0
KPD2 110642Z 12003KT 25/17 A3013 RMK A01 T02540165  RH  058%=      5-min Rain = 0
KPD2 110643Z 13002KT 25/17 A3013 RMK A01 T02540165  RH  058%=      5-min Rain = 0
KPD2 110644Z 13002KT 25/17 A3013 RMK A01 T02540165  RH  058%=      5-min Rain = 0
KPD2 110645Z 13004KT 25/17 A3013 RMK A01 T02540165  RH  058%=      5-min Rain = 0
KPD2 110646Z 15004KT 25/17 A3013 RMK A01 T02540165  RH  058%=      5-min Rain = 0
KPD2 110647Z 17004KT 25/17 A3013 RMK A01 T02540165  RH  058%=      5-min Rain = 0
KPD2 110648Z 14003KT 26/17 A3013 RMK A01 T02550165  RH  057%=      5-min Rain = 0
KPD2 110649Z 13003KT 26/17 A3012 RMK A01 T02570165  RH  057%=      5-min Rain = 0
KPD2 110650Z 13003KT 26/17 A3012 RMK A01 T02560165  RH  057%=      5-min Rain = 0
KPD2 110651Z 16003KT 26/17 A3012 RMK A01 T02570165  RH  057%=      5-min Rain = 0
KPD2 110652Z 19003KT 26/17 A3012 RMK A01 T02560165  RH  057%=      5-min Rain = 0
KPD2 110653Z 19002KT 26/17 A3012 RMK A01 T02560165  RH  057%=      5-min Rain = 0
KPD2 110654Z 16003KT 26/17 A3012 RMK A01 T02560165  RH  057%=      5-min Rain = 0
KPD2 110655Z 17002KT 26/17 A3012 RMK A01 T02550165  RH  057%=      5-min Rain = 0
KPD2 110656Z 17001KT 26/17 A3012 RMK A01 T02560165  RH  057%=      5-min Rain = 0
KPD2 110657Z 18001KT 26/16 A3012 RMK A01 T02550164  RH  057%=      5-min Rain = 0
KPD2 110658Z 18001KT 26/17 A3012 RMK A01 T02550165  RH  057%=      5-min Rain = 0
KPD2 110659Z 20001KT 26/17 A3012 RMK A01 T02550165  RH  058%=      5-min Rain = 0
KPD2 110700Z 21002KT 25/17 A3012 RMK A01 T02540165  RH  058%=      5-min Rain = 0
KPD2 110701Z 21001KT 25/17 A3012 RMK A01 T02530165  RH  058%=      5-min Rain = 0
KPD2 110702Z 17002KT 25/17 A3012 RMK A01 T02530165  RH  058%=      5-min Rain = 0
KPD2 110703Z 18004KT 25/16 A3012 RMK A01 T02520164  RH  058%=      5-min Rain = 0
KPD2 110704Z 21002KT 25/16 A3012 RMK A01 T02530164  RH  058%=      5-min Rain = 0
KPD2 110705Z 14003KT 25/17 A3012 RMK A01 T02540165  RH  058%=      5-min Rain = 0
KPD2 110706Z 13004KT 25/16 A3012 RMK A01 T02540164  RH  058%=      5-min Rain = 0
KPD2 110707Z 15004KT 25/16 A3012 RMK A01 T02540164  RH  057%=      5-min Rain = 0
KPD2 110708Z 16003KT 25/17 A3012 RMK A01 T02540165  RH  058%=      5-min Rain = 0
KPD2 110709Z 16002KT 25/16 A3012 RMK A01 T02540164  RH  058%=      5-min Rain = 0
KPD2 110710Z 14002KT 25/16 A3012 RMK A01 T02540164  RH  058%=      5-min Rain = 0
KPD2 110711Z 16004KT 25/16 A3012 RMK A01 T02530164  RH  058%=      5-min Rain = 0
KPD2 110712Z 18002KT 25/16 A3012 RMK A01 T02530164  RH  058%=      5-min Rain = 0
KPD2 110713Z 15004KT 25/16 A3012 RMK A01 T02530164  RH  058%=      5-min Rain = 0
KPD2 110714Z 14004KT 25/16 A3012 RMK A01 T02540164  RH  058%=      5-min Rain = 0
KPD2 110715Z 12003KT 25/16 A3012 RMK A01 T02540164  RH  057%=      5-min Rain = 0
KPD2 110716Z 13004KT 26/16 A3012 RMK A01 T02550164  RH  057%=      5-min Rain = 0
KPD2 110717Z 12002KT 26/16 A3012 RMK A01 T02550164  RH  057%=      5-min Rain = 0
KPD2 110718Z 13003KT 26/16 A3012 RMK A01 T02550164  RH  057%=      5-min Rain = 0
KPD2 110719Z 13004KT 26/16 A3012 RMK A01 T02550164  RH  057%=      5-min Rain = 0
KPD2 110720Z 13005KT 26/16 A3012 RMK A01 T02550164  RH  057%=      5-min Rain = 0
KPD2 110721Z 12004KT 25/16 A3012 RMK A01 T02540164  RH  058%=      5-min Rain = 0
KPD2 110722Z 13005KT 25/16 A3012 RMK A01 T02540164  RH  058%=      5-min Rain = 0
KPD2 110723Z 14004KT 25/16 A3012 RMK A01 T02540164  RH  058%=      5-min Rain = 0
KPD2 110724Z 11005KT 25/16 A3012 RMK A01 T02530164  RH  058%=      5-min Rain = 0
KPD2 110725Z 12005KT 25/16 A3012 RMK A01 T02540164  RH  057%=      5-min Rain = 0
KPD2 110726Z 14005KT 25/16 A3012 RMK A01 T02540164  RH  058%=      5-min Rain = 0
KPD2 110727Z 15004KT 25/16 A3012 RMK A01 T02530164  RH  058%=      5-min Rain = 0
KPD2 110728Z 13005KT 25/16 A3012 RMK A01 T02530164  RH  058%=      5-min Rain = 0
KPD2 110729Z 13004KT 25/16 A3012 RMK A01 T02530164  RH  058%=      5-min Rain = 0
KPD2 110730Z 11005KT 25/16 A3012 RMK A01 T02530164  RH  058%=      5-min Rain = 0
KPD2 110731Z 13005KT 25/16 A3012 RMK A01 T02520164  RH  058%=      5-min Rain = 0
KPD2 110732Z 15004KT 25/16 A3012 RMK A01 T02520164  RH  058%=      5-min Rain = 0
KPD2 110733Z 14005KT 25/16 A3012 RMK A01 T02520164  RH  058%=      5-min Rain = 0
KPD2 110734Z 13004KT 25/16 A3012 RMK A01 T02520164  RH  058%=      5-min Rain = 0
KPD2 110735Z 13004KT 25/16 A3012 RMK A01 T02520164  RH  058%=      5-min Rain = 0
KPD2 110736Z 12005KT 25/16 A3012 RMK A01 T02520164  RH  058%=      5-min Rain = 0
KPD2 110737Z 14006KT 25/16 A3012 RMK A01 T02520164  RH  058%=      5-min Rain = 0
KPD2 110738Z 14005KT 25/16 A3012 RMK A01 T02510164  RH  058%=      5-min Rain = 0
KPD2 110739Z 13005KT 25/16 A3012 RMK A01 T02520164  RH  058%=      5-min Rain = 0
KPD2 110740Z 14008KT 25/16 A3012 RMK A01 T02520164  RH  058%=      5-min Rain = 0
KPD2 110741Z 13005KT 25/16 A3012 RMK A01 T02520164  RH  058%=      5-min Rain = 0
KPD2 110742Z 14005KT 25/16 A3012 RMK A01 T02520164  RH  058%=      5-min Rain = 0
KPD2 110743Z 15004KT 25/16 A3012 RMK A01 T02520164  RH  058%=      5-min Rain = 0
KPD2 110744Z 15004KT 25/16 A3012 RMK A01 T02510164  RH  058%=      5-min Rain = 0
KPD2 110745Z 13004KT 25/16 A3012 RMK A01 T02510164  RH  058%=      5-min Rain = 0
KPD2 110746Z 14005KT 25/16 A3012 RMK A01 T02510164  RH  058%=      5-min Rain = 0
KPD2 110747Z 13003KT 25/16 A3012 RMK A01 T02510164  RH  058%=      5-min Rain = 0
KPD2 110748Z 13004KT 25/16 A3012 RMK A01 T02520164  RH  058%=      5-min Rain = 0
KPD2 110749Z 12004KT 25/16 A3012 RMK A01 T02520164  RH  058%=      5-min Rain = 0
KPD2 110750Z 14004KT 25/16 A3012 RMK A01 T02520164  RH  058%=      5-min Rain = 0
KPD2 110751Z 14005KT 25/16 A3012 RMK A01 T02510164  RH  058%=      5-min Rain = 0
KPD2 110752Z 11005KT 25/16 A3012 RMK A01 T02520164  RH  058%=      5-min Rain = 0
KPD2 110753Z 11005KT 25/16 A3012 RMK A01 T02520164  RH  058%=      5-min Rain = 0
KPD2 110754Z 10003KT 25/16 A3012 RMK A01 T02520164  RH  058%=      5-min Rain = 0
KPD2 110755Z 15004KT 25/16 A3012 RMK A01 T02510164  RH  058%=      5-min Rain = 0
KPD2 110756Z 15004KT 25/16 A3012 RMK A01 T02510164  RH  058%=      5-min Rain = 0
KPD2 110757Z 13005KT 25/16 A3012 RMK A01 T02510164  RH  058%=      5-min Rain = 0
KPD2 110758Z 12006KT 25/16 A3012 RMK A01 T02510164  RH  058%=      5-min Rain = 0
KPD2 110759Z 11005KT 25/16 A3012 RMK A01 T02500163  RH  058%=      5-min Rain = 0
KPD2 110800Z 11005KT 25/16 A3012 RMK A01 T02500163  RH  059%=      5-min Rain = 0
KPD2 110801Z 12005KT 25/16 A3012 RMK A01 T02500163  RH  059%=      5-min Rain = 0
KPD2 110802Z 12007KT 25/16 A3012 RMK A01 T02500163  RH  059%=      5-min Rain = 0
KPD2 110803Z 13006KT 25/16 A3012 RMK A01 T02490163  RH  059%=      5-min Rain = 0
KPD2 110804Z 14007KT 25/16 A3011 RMK A01 T02490163  RH  059%=      5-min Rain = 0
KPD2 110805Z 14006KT 25/16 A3011 RMK A01 T02490163  RH  059%=      5-min Rain = 0
KPD2 110806Z 13006KT 25/16 A3011 RMK A01 T02500164  RH  059%=      5-min Rain = 0
KPD2 110807Z 14006KT 25/16 A3012 RMK A01 T02510164  RH  058%=      5-min Rain = 0
KPD2 110808Z 13006KT 25/16 A3011 RMK A01 T02520164  RH  058%=      5-min Rain = 0
KPD2 110809Z 14007KT 25/16 A3011 RMK A01 T02520163  RH  058%=      5-min Rain = 0
KPD2 110810Z 12006KT 25/16 A3011 RMK A01 T02520164  RH  058%=      5-min Rain = 0
KPD2 110811Z 11007KT 25/16 A3011 RMK A01 T02530164  RH  058%=      5-min Rain = 0
KPD2 110812Z 13006KT 25/16 A3011 RMK A01 T02520163  RH  058%=      5-min Rain = 0
KPD2 110813Z 12007KT 25/16 A3011 RMK A01 T02510164  RH  058%=      5-min Rain = 0
KPD2 110814Z 12005KT 25/16 A3011 RMK A01 T02510164  RH  058%=      5-min Rain = 0
KPD2 110815Z 13005KT 25/16 A3011 RMK A01 T02510163  RH  058%=      5-min Rain = 0
KPD2 110816Z 12005KT 25/16 A3011 RMK A01 T02500163  RH  058%=      5-min Rain = 0
KPD2 110817Z 12006KT 25/16 A3011 RMK A01 T02500163  RH  058%=      5-min Rain = 0
KPD2 110818Z 13006KT 25/16 A3011 RMK A01 T02500163  RH  059%=      5-min Rain = 0
KPD2 110819Z 12007KT 25/16 A3011 RMK A01 T02490163  RH  059%=      5-min Rain = 0
KPD2 110820Z 12005KT 25/16 A3011 RMK A01 T02480163  RH  059%=      5-min Rain = 0
KPD2 110821Z 12006KT 25/16 A3011 RMK A01 T02480162  RH  059%=      5-min Rain = 0
KPD2 110822Z 12006KT 25/16 A3011 RMK A01 T02480163  RH  059%=      5-min Rain = 0
KPD2 110823Z 11005KT 25/16 A3011 RMK A01 T02470163  RH  059%=      5-min Rain = 0
KPD2 110824Z 13006KT 25/16 A3011 RMK A01 T02470163  RH  059%=      5-min Rain = 0
KPD2 110825Z 11005KT 25/16 A3011 RMK A01 T02470163  RH  059%=      5-min Rain = 0
KPD2 110826Z 11005KT 25/16 A3011 RMK A01 T02470162  RH  059%=      5-min Rain = 0
KPD2 110827Z 11006KT 25/16 A3011 RMK A01 T02470163  RH  059%=      5-min Rain = 0
KPD2 110828Z 10004KT 25/16 A3011 RMK A01 T02470163  RH  059%=      5-min Rain = 0
KPD2 110829Z 11003KT 25/16 A3011 RMK A01 T02480163  RH  059%=      5-min Rain = 0
KPD2 110830Z 10004KT 25/16 A3011 RMK A01 T02490163  RH  059%=      5-min Rain = 0
KPD2 110831Z 11006KT 25/16 A3011 RMK A01 T02490163  RH  059%=      5-min Rain = 0
KPD2 110832Z 11006KT 25/16 A3011 RMK A01 T02490163  RH  059%=      5-min Rain = 0
KPD2 110833Z 11007KT 25/16 A3011 RMK A01 T02490163  RH  059%=      5-min Rain = 0
KPD2 110834Z 11005KT 25/16 A3011 RMK A01 T02490163  RH  059%=      5-min Rain = 0
KPD2 110835Z 12005KT 25/16 A3011 RMK A01 T02490163  RH  059%=      5-min Rain = 0
KPD2 110836Z 12006KT 25/16 A3012 RMK A01 T02490163  RH  059%=      5-min Rain = 0
KPD2 110837Z 11005KT 25/16 A3012 RMK A01 T02490163  RH  059%=      5-min Rain = 0
KPD2 110838Z 11006KT 25/16 A3012 RMK A01 T02480163  RH  059%=      5-min Rain = 0
KPD2 110839Z 11005KT 25/16 A3012 RMK A01 T02480162  RH  059%=      5-min Rain = 0
KPD2 110840Z 11005KT 25/16 A3012 RMK A01 T02480163  RH  059%=      5-min Rain = 0
KPD2 110841Z 12004KT 25/16 A3012 RMK A01 T02490163  RH  059%=      5-min Rain = 0
KPD2 110842Z 11004KT 25/16 A3012 RMK A01 T02500164  RH  059%=      5-min Rain = 0
KPD2 110843Z 11004KT 25/16 A3012 RMK A01 T02510163  RH  058%=      5-min Rain = 0
KPD2 110844Z 13004KT 25/16 A3012 RMK A01 T02510163  RH  058%=      5-min Rain = 0
KPD2 110845Z 15005KT 25/16 A3012 RMK A01 T02510163  RH  058%=      5-min Rain = 0
KPD2 110846Z 13005KT 25/16 A3012 RMK A01 T02500163  RH  058%=      5-min Rain = 0
KPD2 110847Z 12005KT 25/16 A3012 RMK A01 T02490163  RH  059%=      5-min Rain = 0
KPD2 110848Z 14006KT 25/16 A3012 RMK A01 T02490163  RH  059%=      5-min Rain = 0
KPD2 110849Z 13005KT 25/16 A3012 RMK A01 T02490163  RH  059%=      5-min Rain = 0
KPD2 110850Z 13004KT 25/16 A3012 RMK A01 T02510164  RH  058%=      5-min Rain = 0
KPD2 110851Z 12004KT 25/16 A3012 RMK A01 T02520163  RH  058%=      5-min Rain = 0
KPD2 110852Z 13005KT 25/16 A3012 RMK A01 T02530163  RH  058%=      5-min Rain = 0
KPD2 110853Z 13005KT 25/16 A3012 RMK A01 T02530163  RH  058%=      5-min Rain = 0
KPD2 110854Z 12004KT 25/16 A3012 RMK A01 T02520163  RH  058%=      5-min Rain = 0
KPD2 110855Z 14005KT 25/16 A3012 RMK A01 T02500163  RH  058%=      5-min Rain = 0
KPD2 110856Z 13005KT 25/16 A3012 RMK A01 T02500163  RH  059%=      5-min Rain = 0
KPD2 110857Z 12005KT 25/16 A3012 RMK A01 T02490163  RH  059%=      5-min Rain = 0
KPD2 110858Z 13005KT 25/16 A3012 RMK A01 T02480162  RH  059%=      5-min Rain = 0
KPD2 110859Z 13004KT 25/16 A3012 RMK A01 T02480162  RH  059%=      5-min Rain = 0
KPD2 110900Z 12004KT 25/16 A3012 RMK A01 T02470162  RH  059%=      5-min Rain = 0
KPD2 110901Z 13004KT 25/16 A3012 RMK A01 T02470162  RH  059%=      5-min Rain = 0
KPD2 110902Z 14005KT 25/16 A3012 RMK A01 T02460162  RH  059%=      5-min Rain = 0
KPD2 110903Z 13005KT 25/16 A3012 RMK A01 T02460162  RH  060%=      5-min Rain = 0
KPD2 110904Z 12005KT 25/16 A3012 RMK A01 T02460162  RH  060%=      5-min Rain = 0
KPD2 110905Z 12005KT 25/16 A3012 RMK A01 T02450162  RH  060%=      5-min Rain = 0
KPD2 110906Z 12004KT 25/16 A3012 RMK A01 T02450162  RH  060%=      5-min Rain = 0
KPD2 110907Z 13005KT 25/16 A3012 RMK A01 T02450162  RH  060%=      5-min Rain = 0
KPD2 110908Z 13005KT 25/16 A3012 RMK A01 T02450161  RH  060%=      5-min Rain = 0
KPD2 110909Z 13005KT 25/16 A3012 RMK A01 T02450162  RH  060%=      5-min Rain = 0
KPD2 110910Z 13005KT 25/16 A3012 RMK A01 T02450162  RH  060%=      5-min Rain = 0
KPD2 110911Z 13004KT 25/16 A3012 RMK A01 T02450163  RH  060%=      5-min Rain = 0
KPD2 110912Z 14004KT 25/16 A3012 RMK A01 T02450163  RH  060%=      5-min Rain = 0
KPD2 110913Z 14005KT 25/16 A3012 RMK A01 T02450163  RH  060%=      5-min Rain = 0
KPD2 110914Z 13005KT 25/16 A3012 RMK A01 T02450162  RH  060%=      5-min Rain = 0
KPD2 110915Z 13005KT 24/16 A3012 RMK A01 T02440162  RH  060%=      5-min Rain = 0
KPD2 110916Z 14007KT 24/16 A3012 RMK A01 T02440163  RH  060%=      5-min Rain = 0
KPD2 110917Z 14006KT 24/16 A3012 RMK A01 T02440162  RH  060%=      5-min Rain = 0
KPD2 110918Z 12005KT 25/16 A3012 RMK A01 T02460163  RH  060%=      5-min Rain = 0
KPD2 110919Z 12005KT 25/16 A3012 RMK A01 T02470162  RH  059%=      5-min Rain = 0
KPD2 110920Z 11004KT 25/16 A3012 RMK A01 T02470163  RH  059%=      5-min Rain = 0
KPD2 110921Z 12004KT 25/16 A3012 RMK A01 T02460162  RH  060%=      5-min Rain = 0
KPD2 110922Z 13005KT 25/16 A3012 RMK A01 T02450162  RH  060%=      5-min Rain = 0
KPD2 110923Z 12005KT 24/16 A3012 RMK A01 T02440162  RH  060%=      5-min Rain = 0
KPD2 110924Z 12003KT 24/16 A3012 RMK A01 T02440162  RH  060%=      5-min Rain = 0
KPD2 110925Z 12006KT 24/16 A3012 RMK A01 T02430161  RH  060%=      5-min Rain = 0
KPD2 110926Z 14005KT 24/16 A3012 RMK A01 T02430161  RH  060%=      5-min Rain = 0
KPD2 110927Z 12004KT 24/16 A3012 RMK A01 T02430161  RH  060%=      5-min Rain = 0
KPD2 110928Z 12004KT 24/16 A3012 RMK A01 T02430161  RH  060%=      5-min Rain = 0
KPD2 110929Z 12004KT 24/16 A3012 RMK A01 T02430161  RH  060%=      5-min Rain = 0
KPD2 110930Z 12004KT 24/16 A3012 RMK A01 T02430161  RH  060%=      5-min Rain = 0
KPD2 110931Z 11004KT 24/16 A3012 RMK A01 T02430161  RH  060%=      5-min Rain = 0
KPD2 110932Z 11005KT 24/16 A3011 RMK A01 T02420161  RH  060%=      5-min Rain = 0
KPD2 110933Z 13006KT 24/16 A3011 RMK A01 T02420161  RH  061%=      5-min Rain = 0
KPD2 110934Z 15005KT 24/16 A3011 RMK A01 T02420162  RH  061%=      5-min Rain = 0
KPD2 110935Z 16003KT 24/16 A3011 RMK A01 T02430162  RH  060%=      5-min Rain = 0
KPD2 110936Z 14002KT 24/16 A3011 RMK A01 T02440162  RH  060%=      5-min Rain = 0
KPD2 110937Z 14003KT 24/16 A3011 RMK A01 T02440162  RH  060%=      5-min Rain = 0
KPD2 110938Z 17002KT 24/16 A3011 RMK A01 T02440162  RH  060%=      5-min Rain = 0
KPD2 110939Z 14002KT 24/16 A3011 RMK A01 T02430161  RH  060%=      5-min Rain = 0
KPD2 110940Z 15001KT 24/16 A3011 RMK A01 T02430162  RH  060%=      5-min Rain = 0
KPD2 110941Z 16001KT 24/16 A3011 RMK A01 T02430162  RH  060%=      5-min Rain = 0
KPD2 110942Z 15002KT 24/16 A3011 RMK A01 T02420162  RH  061%=      5-min Rain = 0
KPD2 110943Z 14002KT 24/16 A3011 RMK A01 T02420162  RH  061%=      5-min Rain = 0
KPD2 110944Z 12001KT 24/16 A3011 RMK A01 T02410162  RH  061%=      5-min Rain = 0
KPD2 110945Z 15002KT 24/16 A3011 RMK A01 T02410162  RH  061%=      5-min Rain = 0
KPD2 110946Z 13002KT 24/16 A3011 RMK A01 T02400161  RH  061%=      5-min Rain = 0
KPD2 110947Z 14001KT 24/16 A3011 RMK A01 T02400161  RH  061%=      5-min Rain = 0
KPD2 110948Z 14001KT 24/16 A3011 RMK A01 T02400161  RH  061%=      5-min Rain = 0
KPD2 110949Z 16001KT 24/16 A3011 RMK A01 T02390161  RH  062%=      5-min Rain = 0
KPD2 110950Z 18002KT 24/16 A3011 RMK A01 T02390161  RH  062%=      5-min Rain = 0
KPD2 110951Z 16001KT 24/16 A3011 RMK A01 T02380162  RH  062%=      5-min Rain = 0
KPD2 110952Z 15001KT 24/16 A3011 RMK A01 T02380161  RH  062%=      5-min Rain = 0
KPD2 110953Z 14002KT 24/16 A3011 RMK A01 T02380161  RH  062%=      5-min Rain = 0
KPD2 110954Z 14002KT 24/16 A3011 RMK A01 T02380161  RH  062%=      5-min Rain = 0
KPD2 110955Z 14001KT 24/16 A3011 RMK A01 T02370161  RH  063%=      5-min Rain = 0
KPD2 110956Z 15001KT 24/16 A3011 RMK A01 T02370162  RH  063%=      5-min Rain = 0
KPD2 110957Z 15002KT 24/16 A3011 RMK A01 T02360161  RH  063%=      5-min Rain = 0
KPD2 110958Z 15002KT 24/16 A3011 RMK A01 T02360161  RH  063%=      5-min Rain = 0
KPD2 110959Z 14002KT 24/16 A301 RMK A01 T02350161  RH  063%=      5-min Rain = 0
KPD2 111000Z 14001KT 24/16 A301 RMK A01 T02350161  RH  063%=      5-min Rain = 0
KPD2 111001Z 15001KT 23/16 A301 RMK A01 T02340161  RH  064%=      5-min Rain = 0
KPD2 111002Z 12001KT 23/16 A301 RMK A01 T02330162  RH  064%=      5-min Rain = 0
KPD2 111003Z 12001KT 23/16 A301 RMK A01 T02330162  RH  064%=      5-min Rain = 0
KPD2 111004Z 11001KT 23/16 A301 RMK A01 T02320162  RH  065%=      5-min Rain = 0
KPD2 111005Z 12001KT 23/16 A301 RMK A01 T02310162  RH  065%=      5-min Rain = 0
KPD2 111006Z 12002KT 23/16 A301 RMK A01 T02310162  RH  065%=      5-min Rain = 0
KPD2 111007Z 13002KT 23/16 A301 RMK A01 T02310162  RH  065%=      5-min Rain = 0
KPD2 111008Z 11002KT 23/16 A301 RMK A01 T02300161  RH  065%=      5-min Rain = 0
KPD2 111009Z 11002KT 23/16 A301 RMK A01 T02300162  RH  065%=      5-min Rain = 0
KPD2 111010Z 12003KT 23/16 A301 RMK A01 T02290162  RH  066%=      5-min Rain = 0
KPD2 111011Z 13002KT 23/16 A301 RMK A01 T02290161  RH  066%=      5-min Rain = 0
KPD2 111012Z 14002KT 23/16 A301 RMK A01 T02290162  RH  066%=      5-min Rain = 0
KPD2 111013Z 13001KT 23/16 A301 RMK A01 T02280161  RH  066%=      5-min Rain = 0
KPD2 111014Z 11003KT 23/16 A301 RMK A01 T02280162  RH  066%=      5-min Rain = 0
KPD2 111015Z 12003KT 23/16 A301 RMK A01 T02280161  RH  066%=      5-min Rain = 0
KPD2 111016Z 13004KT 23/16 A301 RMK A01 T02280161  RH  066%=      5-min Rain = 0
KPD2 111017Z 13003KT 23/16 A301 RMK A01 T02290161  RH  066%=      5-min Rain = 0
KPD2 111018Z 12003KT 23/16 A301 RMK A01 T02300162  RH  065%=      5-min Rain = 0
KPD2 111019Z 12003KT 23/16 A301 RMK A01 T02300161  RH  065%=      5-min Rain = 0
KPD2 111020Z 12003KT 23/16 A301 RMK A01 T02310162  RH  065%=      5-min Rain = 0
KPD2 111021Z 12003KT 23/16 A301 RMK A01 T02310162  RH  065%=      5-min Rain = 0
KPD2 111022Z 12004KT 23/16 A301 RMK A01 T02320162  RH  065%=      5-min Rain = 0
KPD2 111023Z 13003KT 23/16 A301 RMK A01 T02320162  RH  065%=      5-min Rain = 0
KPD2 111024Z 12003KT 23/16 A301 RMK A01 T02330162  RH  064%=      5-min Rain = 0
KPD2 111025Z 12003KT 23/16 A301 RMK A01 T02330161  RH  064%=      5-min Rain = 0
KPD2 111026Z 12003KT 23/16 A301 RMK A01 T02330162  RH  064%=      5-min Rain = 0
KPD2 111027Z 13003KT 23/16 A301 RMK A01 T02330162  RH  064%=      5-min Rain = 0
KPD2 111028Z 13004KT 23/16 A301 RMK A01 T02330162  RH  064%=      5-min Rain = 0
KPD2 111029Z 11004KT 23/16 A301 RMK A01 T02330162  RH  064%=      5-min Rain = 0
KPD2 111030Z 12003KT 23/16 A301 RMK A01 T02330162  RH  064%=      5-min Rain = 0
KPD2 111031Z 12003KT 23/16 A301 RMK A01 T02330162  RH  064%=      5-min Rain = 0
KPD2 111032Z 12004KT 23/16 A301 RMK A01 T02330162  RH  064%=      5-min Rain = 0
KPD2 111033Z 13004KT 23/16 A301 RMK A01 T02330162  RH  064%=      5-min Rain = 0
KPD2 111034Z 13004KT 23/16 A301 RMK A01 T02330162  RH  064%=      5-min Rain = 0
KPD2 111035Z 12005KT 23/16 A301 RMK A01 T02330162  RH  064%=      5-min Rain = 0
KPD2 111036Z 11004KT 23/16 A301 RMK A01 T02330162  RH  064%=      5-min Rain = 0
KPD2 111037Z 11003KT 23/16 A301 RMK A01 T02340162  RH  064%=      5-min Rain = 0
KPD2 111038Z 12002KT 23/16 A301 RMK A01 T02340162  RH  064%=      5-min Rain = 0
KPD2 111039Z 12001KT 23/16 A301 RMK A01 T02340162  RH  064%=      5-min Rain = 0
KPD2 111040Z 13003KT 23/16 A301 RMK A01 T02330162  RH  064%=      5-min Rain = 0
KPD2 111041Z 13003KT 23/16 A301 RMK A01 T02330162  RH  064%=      5-min Rain = 0
KPD2 111042Z 13003KT 23/16 A301 RMK A01 T02330161  RH  064%=      5-min Rain = 0
KPD2 111043Z 12002KT 23/16 A301 RMK A01 T02330161  RH  064%=      5-min Rain = 0
KPD2 111044Z 11002KT 23/16 A301 RMK A01 T02330161  RH  064%=      5-min Rain = 0
KPD2 111045Z 12001KT 23/16 A301 RMK A01 T02330162  RH  064%=      5-min Rain = 0
KPD2 111046Z 14001KT 23/16 A301 RMK A01 T02330162  RH  064%=      5-min Rain = 0
KPD2 111047Z 14001KT 23/16 A301 RMK A01 T02330162  RH  064%=      5-min Rain = 0
KPD2 111048Z 15001KT 23/16 A301 RMK A01 T02330162  RH  064%=      5-min Rain = 0
KPD2 111049Z 19001KT 23/16 A3011 RMK A01 T02330163  RH  065%=      5-min Rain = 0
KPD2 111050Z 19001KT 23/16 A3011 RMK A01 T02320163  RH  065%=      5-min Rain = 0
KPD2 111051Z 19000KT 23/16 A3011 RMK A01 T02320163  RH  065%=      5-min Rain = 0
KPD2 111052Z 19000KT 23/16 A3011 RMK A01 T02320163  RH  065%=      5-min Rain = 0
KPD2 111053Z 23000KT 23/16 A3011 RMK A01 T02320163  RH  065%=      5-min Rain = 0
KPD2 111054Z 32002KT 23/16 A3011 RMK A01 T02300161  RH  065%=      5-min Rain = 0
KPD2 111055Z 32002KT 23/16 A3011 RMK A01 T02280160  RH  066%=      5-min Rain = 0
KPD2 111056Z 31001KT 23/16 A3011 RMK A01 T02260160  RH  066%=      5-min Rain = 0
KPD2 111057Z 00000KT 23/16 A3011 RMK A01 T02250160  RH  067%=      5-min Rain = 0
KPD2 111058Z 00000KT 22/16 A3011 RMK A01 T02240160  RH  067%=      5-min Rain = 0
KPD2 111059Z 00002KT 22/16 A3011 RMK A01 T02230160  RH  068%=      5-min Rain = 0
KPD2 111100Z 01002KT 22/16 A3011 RMK A01 T02220160  RH  068%=      5-min Rain = 0
KPD2 111101Z 01002KT 22/16 A3011 RMK A01 T02220160  RH  068%=      5-min Rain = 0
KPD2 111102Z 01003KT 22/16 A3011 RMK A01 T02210160  RH  068%=      5-min Rain = 0
KPD2 111103Z 01002KT 22/16 A3011 RMK A01 T02210160  RH  068%=      5-min Rain = 0
KPD2 111104Z 00002KT 22/16 A3011 RMK A01 T02210161  RH  069%=      5-min Rain = 0
KPD2 111105Z 34003KT 22/16 A3011 RMK A01 T02230162  RH  068%=      5-min Rain = 0
KPD2 111106Z 35002KT 23/16 A301 RMK A01 T02250163  RH  068%=      5-min Rain = 0
KPD2 111107Z 00003KT 23/16 A301 RMK A01 T02270162  RH  067%=      5-min Rain = 0
KPD2 111108Z 00002KT 23/16 A301 RMK A01 T02280162  RH  066%=      5-min Rain = 0
KPD2 111109Z 00003KT 23/16 A301 RMK A01 T02280162  RH  066%=      5-min Rain = 0
KPD2 111110Z 00002KT 23/16 A301 RMK A01 T02270162  RH  066%=      5-min Rain = 0
KPD2 111111Z 00002KT 23/16 A3011 RMK A01 T02270162  RH  066%=      5-min Rain = 0
KPD2 111112Z 00001KT 23/16 A3011 RMK A01 T02270162  RH  066%=      5-min Rain = 0
KPD2 111113Z 00000KT 23/16 A3011 RMK A01 T02270162  RH  067%=      5-min Rain = 0
KPD2 111114Z 00000KT 23/16 A3011 RMK A01 T02270162  RH  066%=      5-min Rain = 0
KPD2 111115Z 00001KT 23/16 A3011 RMK A01 T02270162  RH  067%=      5-min Rain = 0
KPD2 111116Z 35001KT 23/16 A3011 RMK A01 T02270163  RH  067%=      5-min Rain = 0
KPD2 111117Z 33002KT 23/16 A3011 RMK A01 T02270163  RH  067%=      5-min Rain = 0
KPD2 111118Z 33001KT 23/16 A3011 RMK A01 T02280163  RH  067%=      5-min Rain = 0
KPD2 111119Z 33000KT 23/16 A3011 RMK A01 T02280163  RH  067%=      5-min Rain = 0
KPD2 111120Z 33001KT 23/16 A3011 RMK A01 T02280162  RH  067%=      5-min Rain = 0
KPD2 111121Z 25002KT 23/16 A3011 RMK A01 T02270162  RH  067%=      5-min Rain = 0
KPD2 111122Z 25001KT 23/16 A3011 RMK A01 T02270164  RH  067%=      5-min Rain = 0
KPD2 111123Z 20000KT 23/16 A3011 RMK A01 T02270164  RH  067%=      5-min Rain = 0
KPD2 111124Z 23003KT 23/16 A3011 RMK A01 T02270164  RH  067%=      5-min Rain = 0
KPD2 111125Z 23003KT 23/17 A3011 RMK A01 T02270165  RH  068%=      5-min Rain = 0
KPD2 111126Z 26003KT 23/17 A3011 RMK A01 T02280165  RH  068%=      5-min Rain = 0
KPD2 111127Z 27002KT 23/17 A3011 RMK A01 T02290165  RH  067%=      5-min Rain = 0
KPD2 111128Z 27002KT 23/17 A3011 RMK A01 T02290165  RH  067%=      5-min Rain = 0
KPD2 111129Z 28001KT 23/17 A3011 RMK A01 T02290165  RH  067%=      5-min Rain = 0
KPD2 111130Z 00000KT 23/17 A3011 RMK A01 T02300165  RH  067%=      5-min Rain = 0
KPD2 111131Z 18000KT 23/17 A3011 RMK A01 T02290165  RH  067%=      5-min Rain = 0
KPD2 111132Z 18001KT 23/17 A3011 RMK A01 T02300165  RH  067%=      5-min Rain = 0
KPD2 111133Z 23000KT 23/17 A3011 RMK A01 T02290165  RH  067%=      5-min Rain = 0
KPD2 111134Z 25000KT 23/17 A3011 RMK A01 T02300165  RH  067%=      5-min Rain = 0
KPD2 111135Z 00000KT 23/17 A3011 RMK A01 T02290165  RH  067%=      5-min Rain = 0
KPD2 111136Z 00000KT 23/17 A3011 RMK A01 T02290165  RH  067%=      5-min Rain = 0
KPD2 111137Z 00000KT 23/17 A3011 RMK A01 T02290165  RH  067%=      5-min Rain = 0
KPD2 111138Z 29000KT 23/17 A3011 RMK A01 T02290165  RH  067%=      5-min Rain = 0
KPD2 111139Z 30001KT 23/17 A3011 RMK A01 T02280165  RH  067%=      5-min Rain = 0
KPD2 111140Z 31000KT 23/17 A3011 RMK A01 T02280165  RH  068%=      5-min Rain = 0
KPD2 111141Z 31000KT 23/16 A3011 RMK A01 T02270164  RH  068%=      5-min Rain = 0
KPD2 111142Z 33001KT 23/16 A3011 RMK A01 T02270164  RH  068%=      5-min Rain = 0
KPD2 111143Z 34002KT 23/16 A3011 RMK A01 T02270164  RH  068%=      5-min Rain = 0
KPD2 111144Z 35002KT 23/16 A3011 RMK A01 T02260164  RH  068%=      5-min Rain = 0
KPD2 111145Z 35001KT 23/16 A3011 RMK A01 T02260164  RH  068%=      5-min Rain = 0
KPD2 111146Z 00000KT 23/17 A3011 RMK A01 T02250165  RH  069%=      5-min Rain = 0
KPD2 111147Z 35001KT 23/16 A3011 RMK A01 T02250164  RH  068%=      5-min Rain = 0
KPD2 111148Z 35001KT 23/16 A3011 RMK A01 T02250164  RH  068%=      5-min Rain = 0
KPD2 111149Z 01000KT 23/16 A3011 RMK A01 T02250164  RH  068%=      5-min Rain = 0
KPD2 111150Z 06000KT 23/17 A3011 RMK A01 T02260165  RH  068%=      5-min Rain = 0
KPD2 111151Z 00000KT 23/16 A3011 RMK A01 T02260164  RH  068%=      5-min Rain = 0
KPD2 111152Z 00000KT 23/16 A3011 RMK A01 T02260164  RH  068%=      5-min Rain = 0
KPD2 111153Z 00000KT 23/17 A3011 RMK A01 T02260165  RH  068%=      5-min Rain = 0
KPD2 111154Z 00000KT 23/17 A3011 RMK A01 T02260165  RH  068%=      5-min Rain = 0
KPD2 111155Z 00000KT 23/16 A3011 RMK A01 T02260164  RH  068%=      5-min Rain = 0
KPD2 111156Z 00000KT 23/17 A3011 RMK A01 T02250165  RH  069%=      5-min Rain = 0
KPD2 111157Z 00000KT 23/17 A3011 RMK A01 T02250165  RH  069%=      5-min Rain = 0
KPD2 111158Z 06000KT 23/17 A3011 RMK A01 T02250165  RH  069%=      5-min Rain = 0
KPD2 111159Z 00000KT 22/17 A3011 RMK A01 T02240165  RH  069%=      5-min Rain = 0
KPD2 111200Z 00000KT 22/16 A3011 RMK A01 T02240164  RH  069%=      5-min Rain = 0
KPD2 111201Z 00000KT 22/17 A3011 RMK A01 T02240165  RH  069%=      5-min Rain = 0
KPD2 111202Z 00000KT 22/17 A3011 RMK A01 T02240166  RH  069%=      5-min Rain = 0
KPD2 111203Z 00000KT 22/17 A3011 RMK A01 T02240165  RH  069%=      5-min Rain = 0
KPD2 111204Z 00000KT 22/17 A3011 RMK A01 T02240166  RH  070%=      5-min Rain = 0
KPD2 111205Z 05001KT 22/17 A3011 RMK A01 T02230166  RH  070%=      5-min Rain = 0
KPD2 111206Z 25001KT 22/17 A3011 RMK A01 T02240166  RH  070%=      5-min Rain = 0
KPD2 111207Z 23001KT 22/17 A3011 RMK A01 T02240166  RH  070%=      5-min Rain = 0
KPD2 111208Z 24001KT 22/17 A3011 RMK A01 T02240166  RH  069%=      5-min Rain = 0
KPD2 111209Z 26001KT 23/17 A3011 RMK A01 T02250165  RH  069%=      5-min Rain = 0
KPD2 111210Z 26001KT 23/17 A3011 RMK A01 T02250166  RH  069%=      5-min Rain = 0
KPD2 111211Z 25001KT 23/17 A3011 RMK A01 T02250167  RH  070%=      5-min Rain = 0
KPD2 111212Z 29001KT 22/17 A3011 RMK A01 T02240167  RH  070%=      5-min Rain = 0
KPD2 111213Z 30002KT 22/17 A3011 RMK A01 T02240167  RH  070%=      5-min Rain = 0
KPD2 111214Z 32002KT 22/17 A3011 RMK A01 T02240167  RH  070%=      5-min Rain = 0
KPD2 111215Z 35001KT 22/17 A3011 RMK A01 T02230167  RH  070%=      5-min Rain = 0
KPD2 111216Z 35001KT 22/17 A3011 RMK A01 T02230166  RH  070%=      5-min Rain = 0
KPD2 111217Z 35002KT 22/17 A3011 RMK A01 T02230166  RH  070%=      5-min Rain = 0
KPD2 111218Z 34002KT 22/17 A3011 RMK A01 T02220165  RH  070%=      5-min Rain = 0
KPD2 111219Z 30002KT 22/17 A3011 RMK A01 T02210165  RH  071%=      5-min Rain = 0
KPD2 111220Z 31002KT 22/17 A3012 RMK A01 T02210166  RH  071%=      5-min Rain = 0
KPD2 111221Z 32002KT 22/17 A3012 RMK A01 T02210166  RH  071%=      5-min Rain = 0
KPD2 111222Z 28002KT 22/17 A3012 RMK A01 T02220166  RH  071%=      5-min Rain = 0
KPD2 111223Z 26000KT 22/17 A3012 RMK A01 T02220166  RH  071%=      5-min Rain = 0
KPD2 111224Z 31001KT 22/17 A3012 RMK A01 T02220166  RH  071%=      5-min Rain = 0
KPD2 111225Z 32002KT 22/17 A3012 RMK A01 T02230167  RH  071%=      5-min Rain = 0
KPD2 111226Z 31002KT 22/17 A3012 RMK A01 T02230167  RH  070%=      5-min Rain = 0
KPD2 111227Z 32002KT 22/17 A3012 RMK A01 T02230167  RH  071%=      5-min Rain = 0
KPD2 111228Z 32001KT 22/17 A3012 RMK A01 T02230167  RH  070%=      5-min Rain = 0
KPD2 111229Z 30002KT 22/17 A3012 RMK A01 T02230166  RH  070%=      5-min Rain = 0
KPD2 111230Z 32002KT 22/17 A3012 RMK A01 T02230167  RH  070%=      5-min Rain = 0
KPD2 111231Z 32001KT 22/17 A3012 RMK A01 T02230167  RH  071%=      5-min Rain = 0
KPD2 111232Z 31002KT 22/17 A3012 RMK A01 T02220167  RH  071%=      5-min Rain = 0
KPD2 111233Z 28002KT 22/17 A3012 RMK A01 T02220167  RH  071%=      5-min Rain = 0
KPD2 111234Z 26001KT 22/17 A3012 RMK A01 T02220167  RH  071%=      5-min Rain = 0
KPD2 111235Z 29001KT 22/17 A3012 RMK A01 T02220167  RH  071%=      5-min Rain = 0
KPD2 111236Z 29002KT 22/17 A3012 RMK A01 T02220168  RH  071%=      5-min Rain = 0
KPD2 111237Z 28002KT 22/17 A3012 RMK A01 T02220167  RH  071%=      5-min Rain = 0
KPD2 111238Z 29002KT 22/17 A3012 RMK A01 T02220168  RH  071%=      5-min Rain = 0
KPD2 111239Z 31002KT 22/17 A3012 RMK A01 T02220168  RH  071%=      5-min Rain = 0
KPD2 111240Z 29002KT 22/17 A3012 RMK A01 T02220168  RH  071%=      5-min Rain = 0
KPD2 111241Z 32002KT 22/17 A3012 RMK A01 T02220168  RH  071%=      5-min Rain = 0
KPD2 111242Z 33001KT 22/17 A3012 RMK A01 T02220168  RH  072%=      5-min Rain = 0
KPD2 111243Z 33002KT 22/17 A3012 RMK A01 T02220168  RH  072%=      5-min Rain = 0
KPD2 111244Z 33002KT 22/17 A3012 RMK A01 T02220168  RH  072%=      5-min Rain = 0
KPD2 111245Z 35002KT 22/17 A3012 RMK A01 T02220168  RH  072%=      5-min Rain = 0
KPD2 111246Z 36002KT 22/17 A3012 RMK A01 T02220168  RH  072%=      5-min Rain = 0
KPD2 111247Z 01002KT 22/17 A3012 RMK A01 T02220168  RH  072%=      5-min Rain = 0
KPD2 111248Z 01002KT 22/17 A3012 RMK A01 T02220168  RH  071%=      5-min Rain = 0
KPD2 111249Z 36002KT 22/17 A3012 RMK A01 T02220168  RH  071%=      5-min Rain = 0
KPD2 111250Z 00003KT 22/17 A3012 RMK A01 T02220168  RH  071%=      5-min Rain = 0
KPD2 111251Z 01003KT 22/17 A3012 RMK A01 T02220168  RH  071%=      5-min Rain = 0
KPD2 111252Z 00002KT 22/17 A3012 RMK A01 T02230168  RH  071%=      5-min Rain = 0
KPD2 111253Z 01002KT 22/17 A3012 RMK A01 T02230168  RH  071%=      5-min Rain = 0
KPD2 111254Z 01003KT 22/17 A3012 RMK A01 T02230169  RH  071%=      5-min Rain = 0
KPD2 111255Z 01002KT 22/17 A3012 RMK A01 T02230169  RH  071%=      5-min Rain = 0
KPD2 111256Z 02003KT 22/17 A3012 RMK A01 T02240169  RH  071%=      5-min Rain = 0
KPD2 111257Z 01003KT 23/17 A3012 RMK A01 T02250169  RH  071%=      5-min Rain = 0
KPD2 111258Z 02003KT 23/17 A3012 RMK A01 T02250169  RH  071%=      5-min Rain = 0
KPD2 111259Z 02004KT 23/17 A3012 RMK A01 T02260170  RH  070%=      5-min Rain = 0
KPD2 111300Z 02003KT 23/17 A3012 RMK A01 T02270170  RH  070%=      5-min Rain = 0
KPD2 111301Z 01003KT 23/17 A3012 RMK A01 T02280170  RH  070%=      5-min Rain = 0
KPD2 111302Z 01002KT 23/17 A3012 RMK A01 T02290170  RH  070%=      5-min Rain = 0
KPD2 111303Z 01003KT 23/17 A3012 RMK A01 T02300171  RH  069%=      5-min Rain = 0
KPD2 111304Z 01003KT 23/17 A3012 RMK A01 T02320170  RH  068%=      5-min Rain = 0
KPD2 111305Z 00003KT 23/17 A3012 RMK A01 T02340172  RH  068%=      5-min Rain = 0
KPD2 111306Z 36002KT 24/17 A3012 RMK A01 T02360172  RH  068%=      5-min Rain = 0
KPD2 111307Z 00003KT 24/17 A3012 RMK A01 T02380173  RH  067%=      5-min Rain = 0
KPD2 111308Z 00002KT 24/17 A3012 RMK A01 T02400173  RH  066%=      5-min Rain = 0
KPD2 111309Z 35002KT 24/17 A3012 RMK A01 T02440174  RH  065%=      5-min Rain = 0
KPD2 111310Z 36001KT 25/17 A3012 RMK A01 T02460173  RH  064%=      5-min Rain = 0
KPD2 111311Z 01002KT 25/17 A3012 RMK A01 T02490174  RH  063%=      5-min Rain = 0
KPD2 111312Z 01002KT 25/17 A3012 RMK A01 T02520174  RH  062%=      5-min Rain = 0
KPD2 111313Z 01001KT 25/17 A3012 RMK A01 T02540173  RH  061%=      5-min Rain = 0
KPD2 111314Z 03002KT 26/17 A3012 RMK A01 T02560174  RH  060%=      5-min Rain = 0
KPD2 111315Z 03002KT 26/17 A3012 RMK A01 T02570174  RH  060%=      5-min Rain = 0
KPD2 111316Z 03002KT 26/17 A3012 RMK A01 T02590174  RH  059%=      5-min Rain = 0
KPD2 111317Z 03002KT 26/17 A3012 RMK A01 T02600174  RH  059%=      5-min Rain = 0
KPD2 111318Z 02002KT 26/17 A3012 RMK A01 T02610174  RH  058%=      5-min Rain = 0
KPD2 111319Z 34001KT 26/17 A3012 RMK A01 T02620173  RH  058%=      5-min Rain = 0
KPD2 111320Z 33002KT 26/17 A3012 RMK A01 T02620171  RH  057%=      5-min Rain = 0
KPD2 111321Z 34001KT 26/17 A3012 RMK A01 T02600170  RH  058%=      5-min Rain = 0
KPD2 111322Z 36001KT 26/17 A3012 RMK A01 T02590171  RH  058%=      5-min Rain = 0
KPD2 111323Z 02002KT 26/17 A3012 RMK A01 T02590173  RH  059%=      5-min Rain = 0
KPD2 111324Z 03002KT 26/17 A3012 RMK A01 T02610173  RH  058%=      5-min Rain = 0
KPD2 111325Z 03002KT 26/17 A3012 RMK A01 T02630173  RH  058%=      5-min Rain = 0
KPD2 111326Z 04002KT 26/17 A3012 RMK A01 T02640172  RH  057%=      5-min Rain = 0
KPD2 111327Z 06002KT 26/17 A3012 RMK A01 T02640172  RH  057%=      5-min Rain = 0
KPD2 111328Z 06002KT 26/17 A3012 RMK A01 T02630172  RH  057%=      5-min Rain = 0
KPD2 111329Z 05002KT 26/17 A3012 RMK A01 T02630173  RH  058%=      5-min Rain = 0
KPD2 111330Z 04002KT 26/17 A3012 RMK A01 T02630173  RH  057%=      5-min Rain = 0
KPD2 111331Z 03002KT 26/17 A3012 RMK A01 T02640172  RH  057%=      5-min Rain = 0
KPD2 111332Z 02001KT 26/17 A3012 RMK A01 T02640173  RH  057%=      5-min Rain = 0
KPD2 111333Z 02001KT 26/17 A3012 RMK A01 T02640172  RH  057%=      5-min Rain = 0
KPD2 111334Z 02002KT 26/17 A3012 RMK A01 T02630173  RH  057%=      5-min Rain = 0
KPD2 111335Z 01001KT 26/17 A3012 RMK A01 T02640172  RH  057%=      5-min Rain = 0
KPD2 111336Z 02002KT 27/17 A3012 RMK A01 T02660173  RH  057%=      5-min Rain = 0
KPD2 111337Z 02003KT 27/17 A3012 RMK A01 T02660173  RH  056%=      5-min Rain = 0
KPD2 111338Z 02003KT 27/17 A3012 RMK A01 T02670174  RH  057%=      5-min Rain = 0
KPD2 111339Z 02002KT 27/17 A3012 RMK A01 T02680174  RH  056%=      5-min Rain = 0
KPD2 111340Z 02002KT 27/17 A3012 RMK A01 T02700174  RH  056%=      5-min Rain = 0
KPD2 111341Z 01002KT 27/17 A3012 RMK A01 T02700174  RH  056%=      5-min Rain = 0
KPD2 111342Z 35002KT 27/18 A3012 RMK A01 T02710175  RH  056%=      5-min Rain = 0
KPD2 111343Z 35002KT 27/17 A3012 RMK A01 T02710173  RH  055%=      5-min Rain = 0
KPD2 111344Z 02003KT 27/17 A3012 RMK A01 T02690172  RH  055%=      5-min Rain = 0
KPD2 111345Z 02003KT 27/17 A3012 RMK A01 T02690174  RH  056%=      5-min Rain = 0
KPD2 111346Z 03001KT 27/17 A3012 RMK A01 T02720173  RH  055%=      5-min Rain = 0
KPD2 111347Z 03002KT 27/17 A3012 RMK A01 T02730173  RH  054%=      5-min Rain = 0
KPD2 111348Z 02002KT 28/17 A3012 RMK A01 T02750174  RH  054%=      5-min Rain = 0
KPD2 111349Z 00001KT 28/17 A3012 RMK A01 T02770174  RH  053%=      5-min Rain = 0
KPD2 111350Z 36001KT 28/17 A3012 RMK A01 T02760172  RH  053%=      5-min Rain = 0
KPD2 111351Z 31002KT 28/17 A3012 RMK A01 T02760171  RH  053%=      5-min Rain = 0
KPD2 111352Z 29002KT 28/17 A3012 RMK A01 T02750171  RH  053%=      5-min Rain = 0
KPD2 111353Z 30001KT 28/17 A3012 RMK A01 T02750171  RH  053%=      5-min Rain = 0
KPD2 111354Z 10002KT 27/17 A3012 RMK A01 T02730171  RH  054%=      5-min Rain = 0
KPD2 111355Z 10002KT 27/17 A3012 RMK A01 T02740173  RH  054%=      5-min Rain = 0
KPD2 111356Z 10002KT 28/17 A3012 RMK A01 T02770172  RH  053%=      5-min Rain = 0
KPD2 111357Z 10004KT 28/17 A3012 RMK A01 T02770171  RH  052%=      5-min Rain = 0
KPD2 111358Z 11003KT 28/17 A3012 RMK A01 T02770170  RH  052%=      5-min Rain = 0
KPD2 111359Z 12002KT 28/17 A3012 RMK A01 T02760170  RH  053%=      5-min Rain = 0
KPD2 111400Z 11001KT 28/17 A3012 RMK A01 T02750170  RH  053%=      5-min Rain = 0
KPD2 111401Z 23000KT 28/17 A3012 RMK A01 T02750171  RH  053%=      5-min Rain = 0
KPD2 111402Z 20001KT 28/17 A3012 RMK A01 T02750171  RH  053%=      5-min Rain = 0
KPD2 111403Z 00000KT 28/17 A3012 RMK A01 T02760172  RH  053%=      5-min Rain = 0
KPD2 111404Z 10000KT 28/17 A3012 RMK A01 T02770172  RH  053%=      5-min Rain = 0
KPD2 111405Z 11001KT 28/17 A3012 RMK A01 T02780173  RH  053%=      5-min Rain = 0
KPD2 111406Z 14003KT 28/17 A3013 RMK A01 T02790173  RH  053%=      5-min Rain = 0
KPD2 111407Z 12004KT 28/17 A3012 RMK A01 T02790170  RH  051%=      5-min Rain = 0
KPD2 111408Z 10003KT 28/17 A3012 RMK A01 T02770166  RH  051%=      5-min Rain = 0
KPD2 111409Z 16001KT 28/17 A3012 RMK A01 T02750167  RH  052%=      5-min Rain = 0
KPD2 111410Z 18003KT 28/17 A3012 RMK A01 T02750168  RH  052%=      5-min Rain = 0
KPD2 111411Z 19001KT 27/17 A3013 RMK A01 T02740168  RH  052%=      5-min Rain = 0
KPD2 111412Z 09001KT 27/17 A3012 RMK A01 T02730168  RH  053%=      5-min Rain = 0
KPD2 111413Z 11002KT 27/17 A3012 RMK A01 T02730166  RH  052%=      5-min Rain = 0
KPD2 111414Z 15002KT 27/17 A3012 RMK A01 T02730167  RH  052%=      5-min Rain = 0
KPD2 111415Z 22002KT 27/17 A3013 RMK A01 T02740167  RH  052%=      5-min Rain = 0
KPD2 111416Z 22002KT 27/17 A3013 RMK A01 T02740169  RH  053%=      5-min Rain = 0
KPD2 111417Z 18002KT 28/17 A3013 RMK A01 T02750167  RH  052%=      5-min Rain = 0
KPD2 111418Z 18002KT 28/17 A3013 RMK A01 T02750165  RH  051%=      5-min Rain = 0
KPD2 111419Z 16003KT 28/17 A3013 RMK A01 T02750166  RH  051%=      5-min Rain = 0
KPD2 111420Z 17004KT 28/17 A3013 RMK A01 T02750166  RH  051%=      5-min Rain = 0
KPD2 111421Z 18002KT 28/17 A3013 RMK A01 T02770166  RH  051%=      5-min Rain = 0
KPD2 111422Z 16006KT 28/17 A3013 RMK A01 T02780165  RH  050%=      5-min Rain = 0
KPD2 111423Z 20004KT 28/17 A3013 RMK A01 T02780165  RH  050%=      5-min Rain = 0
KPD2 111424Z 20006KT 28/16 A3013 RMK A01 T02780164  RH  050%=      5-min Rain = 0
KPD2 111425Z 23004KT 28/16 A3013 RMK A01 T02780162  RH  049%=      5-min Rain = 0
KPD2 111426Z 22004G9KT 28/16 A3013 RMK A01 T02780162  RH  049%=      5-min Rain = 0
KPD2 111427Z 20004KT 28/16 A3013 RMK A01 T02770161  RH  049%=      5-min Rain = 0
KPD2 111428Z 22004KT 28/16 A3013 RMK A01 T02770162  RH  050%=      5-min Rain = 0
KPD2 111429Z 19004KT 28/16 A3013 RMK A01 T02770164  RH  050%=      5-min Rain = 0
KPD2 111430Z 19002KT 28/16 A3013 RMK A01 T02780161  RH  049%=      5-min Rain = 0
KPD2 111431Z 24003KT 28/16 A3013 RMK A01 T02780160  RH  049%=      5-min Rain = 0
KPD2 111432Z 18006G11KT 28/16 A3013 RMK A01 T02790160  RH  048%=      5-min Rain = 0
KPD2 111433Z 18005KT 28/16 A3013 RMK A01 T02790158  RH  048%=      5-min Rain = 0
KPD2 111434Z 21003KT 28/16 A3013 RMK A01 T02780158  RH  048%=      5-min Rain = 0
KPD2 111435Z 15003KT 28/16 A3013 RMK A01 T02780160  RH  049%=      5-min Rain = 0
KPD2 111436Z 15002KT 28/16 A3013 RMK A01 T02780159  RH  048%=      5-min Rain = 0
KPD2 111437Z 17002KT 28/16 A3013 RMK A01 T02790159  RH  048%=      5-min Rain = 0
KPD2 111438Z 00000KT 28/16 A3013 RMK A01 T02790159  RH  048%=      5-min Rain = 0
KPD2 111439Z 14000KT 28/16 A3013 RMK A01 T02800160  RH  048%=      5-min Rain = 0
KPD2 111440Z 14004KT 28/16 A3013 RMK A01 T02800159  RH  048%=      5-min Rain = 0
KPD2 111441Z 16004KT 28/16 A3013 RMK A01 T02810157  RH  047%=      5-min Rain = 0
KPD2 111442Z 18005KT 28/16 A3013 RMK A01 T02810156  RH  047%=      5-min Rain = 0
KPD2 111443Z 19004KT 28/16 A3013 RMK A01 T02820156  RH  046%=      5-min Rain = 0
KPD2 111444Z 16004KT 28/16 A3013 RMK A01 T02820157  RH  046%=      5-min Rain = 0
KPD2 111445Z 15004KT 28/16 A3013 RMK A01 T02820156  RH  046%=      5-min Rain = 0
KPD2 111446Z 17006KT 28/15 A3013 RMK A01 T02830153  RH  045%=      5-min Rain = 0
KPD2 111447Z 21005KT 29/15 A3013 RMK A01 T02850154  RH  045%=      5-min Rain = 0
KPD2 111448Z 20007KT 29/15 A3013 RMK A01 T02860154  RH  045%=      5-min Rain = 0
KPD2 111449Z 23005KT 29/15 A3013 RMK A01 T02870153  RH  044%=      5-min Rain = 0
KPD2 111450Z 21002KT 29/15 A3013 RMK A01 T02870153  RH  044%=      5-min Rain = 0
KPD2 111451Z 22002KT 29/15 A3013 RMK A01 T02880154  RH  044%=      5-min Rain = 0
KPD2 111452Z 19003KT 29/15 A3013 RMK A01 T02900154  RH  044%=      5-min Rain = 0
KPD2 111453Z 24002KT 29/15 A3013 RMK A01 T02910154  RH  043%=      5-min Rain = 0
KPD2 111454Z 19005KT 29/15 A3013 RMK A01 T02910154  RH  043%=      5-min Rain = 0
KPD2 111455Z 18002KT 29/15 A3013 RMK A01 T02910153  RH  043%=      5-min Rain = 0
KPD2 111456Z 22003KT 29/15 A3013 RMK A01 T02920154  RH  043%=      5-min Rain = 0
KPD2 111457Z 18006KT 29/16 A3013 RMK A01 T02940155  RH  043%=      5-min Rain = 0
KPD2 111458Z 20005KT 30/15 A3013 RMK A01 T02970153  RH  042%=      5-min Rain = 0
KPD2 111459Z 15005G10KT 30/15 A3013 RMK A01 T02970152  RH  041%=      5-min Rain = 0
KPD2 111500Z 17009KT 30/15 A3013 RMK A01 T02980150  RH  041%=      5-min Rain = 0
KPD2 111501Z 19006KT 30/15 A3013 RMK A01 T02980149  RH  040%=      5-min Rain = 0
KPD2 111502Z 20010G15KT 30/15 A3013 RMK A01 T02980150  RH  040%=      5-min Rain = 0
KPD2 111503Z 18005KT 30/15 A3013 RMK A01 T02980149  RH  040%=      5-min Rain = 0
KPD2 111504Z 21007KT 30/15 A3013 RMK A01 T02980149  RH  040%=      5-min Rain = 0
KPD2 111505Z 21004KT 30/15 A3013 RMK A01 T02990147  RH  040%=      5-min Rain = 0
KPD2 111506Z 22004KT 30/15 A3013 RMK A01 T03000151  RH  040%=      5-min Rain = 0
KPD2 111507Z 23005KT 30/15 A3013 RMK A01 T03010151  RH  040%=      5-min Rain = 0
KPD2 111508Z 24006KT 30/15 A3013 RMK A01 T03020150  RH  040%=      5-min Rain = 0
KPD2 111509Z 21005KT 30/15 A3012 RMK A01 T03020150  RH  040%=      5-min Rain = 0
KPD2 111510Z 20005KT 30/15 A3013 RMK A01 T03030150  RH  040%=      5-min Rain = 0
KPD2 111511Z 21007KT 30/15 A3013 RMK A01 T03040149  RH  039%=      5-min Rain = 0
KPD2 111512Z 21004KT 31/15 A3013 RMK A01 T03050150  RH  039%=      5-min Rain = 0
KPD2 111513Z 20007G12KT 31/15 A3013 RMK A01 T03060149  RH  039%=      5-min Rain = 0
KPD2 111514Z 21007G12KT 31/15 A3013 RMK A01 T03060149  RH  039%=      5-min Rain = 0
KPD2 111515Z 21009KT 31/15 A3013 RMK A01 T03050147  RH  038%=      5-min Rain = 0
KPD2 111516Z 25009KT 30/15 A3013 RMK A01 T03040148  RH  039%=      5-min Rain = 0
KPD2 111517Z 29005KT 30/15 A3012 RMK A01 T03030146  RH  039%=      5-min Rain = 0
KPD2 111518Z 27005KT 30/15 A3012 RMK A01 T03020147  RH  039%=      5-min Rain = 0
KPD2 111519Z 24009KT 30/15 A3012 RMK A01 T03040149  RH  039%=      5-min Rain = 0
KPD2 111520Z 22005KT 31/15 A3012 RMK A01 T03050149  RH  039%=      5-min Rain = 0
KPD2 111521Z 18004KT 31/15 A3012 RMK A01 T03050150  RH  039%=      5-min Rain = 0
KPD2 111522Z 20004KT 31/15 A3012 RMK A01 T03080151  RH  039%=      5-min Rain = 0
KPD2 111523Z 20008KT 31/15 A3012 RMK A01 T03100152  RH  038%=      5-min Rain = 0
KPD2 111524Z 22006KT 31/15 A3012 RMK A01 T03100150  RH  038%=      5-min Rain = 0
KPD2 111525Z 26007G12KT 31/15 A3012 RMK A01 T03080151  RH  039%=      5-min Rain = 0
KPD2 111526Z 26004G9KT 31/15 A3012 RMK A01 T03070149  RH  038%=      5-min Rain = 0
KPD2 111527Z 22005KT 31/15 A3013 RMK A01 T03050150  RH  039%=      5-min Rain = 0
KPD2 111528Z 18008KT 31/15 A3012 RMK A01 T03050150  RH  039%=      5-min Rain = 0
KPD2 111529Z 17010KT 30/15 A3012 RMK A01 T03030148  RH  039%=      5-min Rain = 0
KPD2 111530Z 15009KT 30/15 A3012 RMK A01 T03000147  RH  039%=      5-min Rain = 0
KPD2 111531Z 15006KT 30/15 A3012 RMK A01 T02990147  RH  040%=      5-min Rain = 0
KPD2 111532Z 16005G11KT 30/15 A3012 RMK A01 T02990148  RH  040%=      5-min Rain = 0
KPD2 111533Z 17009KT 30/15 A3012 RMK A01 T02990147  RH  040%=      5-min Rain = 0
KPD2 111534Z 18007KT 30/15 A3012 RMK A01 T02990145  RH  039%=      5-min Rain = 0
KPD2 111535Z 17006KT 30/15 A3012 RMK A01 T02970145  RH  039%=      5-min Rain = 0
KPD2 111536Z 18008KT 30/14 A3012 RMK A01 T02970144  RH  039%=      5-min Rain = 0
KPD2 111537Z 17006KT 30/14 A3012 RMK A01 T02960144  RH  039%=      5-min Rain = 0
KPD2 111538Z 19007KT 30/14 A3012 RMK A01 T02960144  RH  039%=      5-min Rain = 0
KPD2 111539Z 22004G9KT 30/15 A3012 RMK A01 T02980145  RH  039%=      5-min Rain = 0
KPD2 111540Z 27002KT 30/15 A3012 RMK A01 T02990145  RH  039%=      5-min Rain = 0
KPD2 111541Z 22006KT 30/15 A3012 RMK A01 T03020148  RH  039%=      5-min Rain = 0
KPD2 111542Z 23004KT 30/15 A3012 RMK A01 T03040146  RH  038%=      5-min Rain = 0
KPD2 111543Z 22005KT 31/15 A3012 RMK A01 T03060146  RH  038%=      5-min Rain = 0
KPD2 111544Z 22004KT 31/15 A3012 RMK A01 T03060146  RH  038%=      5-min Rain = 0
KPD2 111545Z 24004KT 31/15 A3012 RMK A01 T03080147  RH  038%=      5-min Rain = 0
KPD2 111546Z 22004KT 31/15 A3012 RMK A01 T03080148  RH  038%=      5-min Rain = 0
KPD2 111547Z 15006KT 31/15 A3012 RMK A01 T03080147  RH  037%=      5-min Rain = 0
KPD2 111548Z 16007KT 31/14 A3012 RMK A01 T03080144  RH  037%=      5-min Rain = 0
KPD2 111549Z 18006KT 31/14 A3012 RMK A01 T03070143  RH  037%=      5-min Rain = 0
KPD2 111550Z 18005KT 31/14 A3012 RMK A01 T03060144  RH  037%=      5-min Rain = 0
KPD2 111551Z 14004KT 30/15 A3012 RMK A01 T03040145  RH  038%=      5-min Rain = 0
KPD2 111552Z 16007KT 30/14 A3012 RMK A01 T03040144  RH  038%=      5-min Rain = 0
KPD2 111553Z 18006KT 31/14 A3012 RMK A01 T03050144  RH  038%=      5-min Rain = 0
KPD2 111554Z 20007KT 31/15 A3012 RMK A01 T03050145  RH  038%=      5-min Rain = 0
KPD2 111555Z 21004KT 31/14 A3012 RMK A01 T03050144  RH  037%=      5-min Rain = 0
KPD2 111556Z 21005KT 31/15 A3012 RMK A01 T03060145  RH  038%=      5-min Rain = 0
KPD2 111557Z 22007KT 31/14 A3012 RMK A01 T03080144  RH  037%=      5-min Rain = 0
KPD2 111558Z 23007KT 31/15 A3012 RMK A01 T03090145  RH  037%=      5-min Rain = 0
KPD2 111559Z 25003KT 31/14 A3012 RMK A01 T03090142  RH  036%=      5-min Rain = 0
KPD2 111600Z 22007KT 31/14 A3012 RMK A01 T03090138  RH  035%=      5-min Rain = 0
KPD2 111601Z 21005KT 31/14 A3012 RMK A01 T03100139  RH  035%=      5-min Rain = 0
KPD2 111602Z 20008KT 31/14 A3012 RMK A01 T03110140  RH  035%=      5-min Rain = 0
KPD2 111603Z 21008KT 31/14 A3012 RMK A01 T03120137  RH  034%=      5-min Rain = 0
KPD2 111604Z 21005KT 31/14 A3012 RMK A01 T03110138  RH  035%=      5-min Rain = 0
KPD2 111605Z 18006KT 31/14 A3012 RMK A01 T03100138  RH  035%=      5-min Rain = 0
KPD2 111606Z 19008KT 31/14 A3012 RMK A01 T03110138  RH  035%=      5-min Rain = 0
KPD2 111607Z 18006KT 31/14 A3012 RMK A01 T03100140  RH  035%=      5-min Rain = 0
KPD2 111608Z 17005KT 31/14 A3012 RMK A01 T03100141  RH  036%=      5-min Rain = 0
KPD2 111609Z 17006KT 31/14 A3012 RMK A01 T03110140  RH  035%=      5-min Rain = 0
KPD2 111610Z 20008KT 31/14 A3012 RMK A01 T03130141  RH  035%=      5-min Rain = 0
KPD2 111611Z 20005KT 32/14 A3012 RMK A01 T03150143  RH  035%=      5-min Rain = 0
KPD2 111612Z 18009KT 32/14 A3012 RMK A01 T03160143  RH  035%=      5-min Rain = 0
KPD2 111613Z 16005KT 32/14 A3011 RMK A01 T03150144  RH  035%=      5-min Rain = 0
KPD2 111614Z 19006KT 31/15 A3011 RMK A01 T03140145  RH  036%=      5-min Rain = 0
KPD2 111615Z 23010KT 31/14 A3011 RMK A01 T03140143  RH  035%=      5-min Rain = 0
KPD2 111616Z 27007G12KT 31/14 A3011 RMK A01 T03140142  RH  035%=      5-min Rain = 0
KPD2 111617Z 28008KT 32/14 A3011 RMK A01 T03150143  RH  035%=      5-min Rain = 0
KPD2 111618Z 25005G11KT 32/14 A3011 RMK A01 T03160144  RH  035%=      5-min Rain = 0
KPD2 111619Z 22003KT 32/14 A3011 RMK A01 T03190144  RH  035%=      5-min Rain = 0
KPD2 111620Z 17002KT 32/15 A3011 RMK A01 T03220145  RH  034%=      5-min Rain = 0
KPD2 111621Z 18005G10KT 32/14 A3011 RMK A01 T03230143  RH  034%=      5-min Rain = 0
KPD2 111622Z 17009KT 32/15 A3011 RMK A01 T03220145  RH  034%=      5-min Rain = 0
KPD2 111623Z 14004G10KT 32/15 A3011 RMK A01 T03190145  RH  035%=      5-min Rain = 0
KPD2 111624Z 18004KT 32/15 A3011 RMK A01 T03180145  RH  035%=      5-min Rain = 0
KPD2 111625Z 20005KT 32/15 A3011 RMK A01 T03170145  RH  035%=      5-min Rain = 0
KPD2 111626Z 18006KT 32/15 A3011 RMK A01 T03160146  RH  036%=      5-min Rain = 0
KPD2 111627Z 18008KT 32/15 A3011 RMK A01 T03160146  RH  036%=      5-min Rain = 0
KPD2 111628Z 19008KT 32/15 A3011 RMK A01 T03180146  RH  035%=      5-min Rain = 0
KPD2 111629Z 20007KT 32/15 A3011 RMK A01 T03180146  RH  035%=      5-min Rain = 0
KPD2 111630Z 17005KT 32/15 A3011 RMK A01 T03190146  RH  035%=      5-min Rain = 0
KPD2 111631Z 20004KT 32/15 A3011 RMK A01 T03200146  RH  035%=      5-min Rain = 0
KPD2 111632Z 24006G11KT 32/15 A3011 RMK A01 T03200149  RH  035%=      5-min Rain = 0
KPD2 111633Z 23009KT 32/15 A3011 RMK A01 T03210146  RH  035%=      5-min Rain = 0
KPD2 111634Z 22008G14KT 32/15 A3011 RMK A01 T03190146  RH  035%=      5-min Rain = 0
KPD2 111635Z 23006KT 32/15 A3011 RMK A01 T03180145  RH  035%=      5-min Rain = 0
KPD2 111636Z 24005KT 32/15 A3011 RMK A01 T03180147  RH  036%=      5-min Rain = 0
KPD2 111637Z 26007KT 32/15 A3011 RMK A01 T03190147  RH  035%=      5-min Rain = 0
KPD2 111638Z 26006KT 32/15 A3011 RMK A01 T03210147  RH  035%=      5-min Rain = 0
KPD2 111639Z 24005KT 32/15 A3011 RMK A01 T03230149  RH  035%=      5-min Rain = 0
KPD2 111640Z 21003KT 33/15 A3011 RMK A01 T03250145  RH  034%=      5-min Rain = 0
KPD2 111641Z 20008G13KT 32/15 A3011 RMK A01 T03240146  RH  034%=      5-min Rain = 0
KPD2 111642Z 23009KT 32/15 A3011 RMK A01 T03230146  RH  034%=      5-min Rain = 0
KPD2 111643Z 21007KT 32/15 A3011 RMK A01 T03200146  RH  035%=      5-min Rain = 0
KPD2 111644Z 22008G14KT 32/15 A3011 RMK A01 T03210147  RH  035%=      5-min Rain = 0
KPD2 111645Z 22006KT 32/15 A3011 RMK A01 T03230147  RH  035%=      5-min Rain = 0
KPD2 111646Z 19008KT 33/15 A3011 RMK A01 T03250146  RH  034%=      5-min Rain = 0
KPD2 111647Z 22007G14KT 32/15 A3011 RMK A01 T03230147  RH  035%=      5-min Rain = 0
KPD2 111648Z 20011G16KT 32/15 A3011 RMK A01 T03230147  RH  034%=      5-min Rain = 0
KPD2 111649Z 20010KT 32/15 A3011 RMK A01 T03230146  RH  034%=      5-min Rain = 0
KPD2 111650Z 18004KT 32/15 A3011 RMK A01 T03210145  RH  035%=      5-min Rain = 0
KPD2 111651Z 18006G12KT 32/15 A3011 RMK A01 T03210146  RH  035%=      5-min Rain = 0
KPD2 111652Z 17010KT 32/15 A3011 RMK A01 T03210145  RH  034%=      5-min Rain = 0
KPD2 111653Z 16006KT 32/14 A3011 RMK A01 T03200144  RH  034%=      5-min Rain = 0
KPD2 111654Z 17006KT 32/15 A3011 RMK A01 T03200145  RH  035%=      5-min Rain = 0
KPD2 111655Z 17007KT 32/15 A3011 RMK A01 T03210145  RH  034%=      5-min Rain = 0
KPD2 111656Z 16007KT 32/15 A3011 RMK A01 T03220145  RH  034%=      5-min Rain = 0
KPD2 111657Z 18004KT 32/15 A3011 RMK A01 T03220146  RH  034%=      5-min Rain = 0
KPD2 111658Z 24003KT 32/15 A3011 RMK A01 T03240148  RH  035%=      5-min Rain = 0
KPD2 111659Z 24007G12KT 33/15 A3011 RMK A01 T03270149  RH  034%=      5-min Rain = 0
KPD2 111700Z 21011KT 33/15 A3011 RMK A01 T03280147  RH  033%=      5-min Rain = 0
KPD2 111701Z 19009KT 33/15 A3011 RMK A01 T03280145  RH  033%=      5-min Rain = 0
KPD2 111702Z 19006KT 33/15 A3011 RMK A01 T03260145  RH  033%=      5-min Rain = 0
KPD2 111703Z 22009KT 33/15 A3011 RMK A01 T03290146  RH  033%=      5-min Rain = 0
KPD2 111704Z 19009KT 33/15 A3011 RMK A01 T03300145  RH  033%=      5-min Rain = 0
KPD2 111705Z 19007KT 33/15 A3011 RMK A01 T03270145  RH  033%=      5-min Rain = 0
KPD2 111706Z 18006KT 33/15 A3011 RMK A01 T03280145  RH  033%=      5-min Rain = 0
KPD2 111707Z 17005KT 33/15 A3011 RMK A01 T03280145  RH  033%=      5-min Rain = 0
KPD2 111708Z 19005KT 33/15 A3011 RMK A01 T03270145  RH  033%=      5-min Rain = 0
KPD2 111709Z 21007KT 33/15 A3011 RMK A01 T03250145  RH  034%=      5-min Rain = 0
KPD2 111710Z 23004G9KT 33/15 A301 RMK A01 T03260145  RH  034%=      5-min Rain = 0
KPD2 111711Z 18003KT 33/14 A301 RMK A01 T03260144  RH  033%=      5-min Rain = 0
KPD2 111712Z 17006KT 32/15 A3011 RMK A01 T03240145  RH  034%=      5-min Rain = 0
KPD2 111713Z 18007G13KT 32/15 A3011 RMK A01 T03230145  RH  034%=      5-min Rain = 0
KPD2 111714Z 17004KT 32/14 A301 RMK A01 T03220144  RH  034%=      5-min Rain = 0
KPD2 111715Z 16003KT 32/15 A301 RMK A01 T03220145  RH  034%=      5-min Rain = 0
KPD2 111716Z 17005KT 32/15 A301 RMK A01 T03220145  RH  034%=      5-min Rain = 0
KPD2 111717Z 19008G13KT 33/15 A301 RMK A01 T03250145  RH  034%=      5-min Rain = 0
KPD2 111718Z 21006KT 33/15 A301 RMK A01 T03290147  RH  033%=      5-min Rain = 0
KPD2 111719Z 17010G16KT 33/14 A301 RMK A01 T03310144  RH  032%=      5-min Rain = 0
KPD2 111720Z 20006G11KT 33/14 A301 RMK A01 T03300142  RH  032%=      5-min Rain = 0
KPD2 111721Z 19005KT 33/14 A301 RMK A01 T03320144  RH  032%=      5-min Rain = 0
KPD2 111722Z 21008KT 34/15 A301 RMK A01 T03360145  RH  032%=      5-min Rain = 0
KPD2 111723Z 20008KT 34/14 A301 RMK A01 T03380140  RH  030%=      5-min Rain = 0
KPD2 111724Z 19003KT 34/14 A301 RMK A01 T03360141  RH  031%=      5-min Rain = 0
KPD2 111725Z 13009KT 34/14 A3009 RMK A01 T03370137  RH  030%=      5-min Rain = 0
KPD2 111726Z 12011KT 34/13 A3009 RMK A01 T03390131  RH  029%=      5-min Rain = 0
KPD2 111727Z 13007KT 34/13 A3009 RMK A01 T03410134  RH  029%=      5-min Rain = 0
KPD2 111728Z 12009G16KT 35/14 A3009 RMK A01 T03450139  RH  029%=      5-min Rain = 0
KPD2 111729Z 15007KT 35/14 A301 RMK A01 T03460139  RH  029%=      5-min Rain = 0
KPD2 111730Z 15008G15KT 35/14 A301 RMK A01 T03460139  RH  029%=      5-min Rain = 0
KPD2 111731Z 16011KT 34/14 A301 RMK A01 T03440139  RH  029%=      5-min Rain = 0
KPD2 111732Z 14011KT 34/14 A301 RMK A01 T03410137  RH  029%=      5-min Rain = 0
KPD2 111733Z 15010G16KT 34/14 A301 RMK A01 T03400138  RH  030%=      5-min Rain = 0
KPD2 111734Z 17008G13KT 34/14 A301 RMK A01 T03430139  RH  029%=      5-min Rain = 0
KPD2 111735Z 15006KT 34/14 A301 RMK A01 T03440139  RH  029%=      5-min Rain = 0
KPD2 111736Z 16008KT 34/14 A3009 RMK A01 T03440138  RH  029%=      5-min Rain = 0
KPD2 111737Z 20004KT 34/14 A3009 RMK A01 T03410138  RH  029%=      5-min Rain = 0
KPD2 111738Z 14004KT 34/14 A3009 RMK A01 T03400139  RH  030%=      5-min Rain = 0
KPD2 111739Z 15005KT 34/14 A3009 RMK A01 T03410137  RH  029%=      5-min Rain = 0
KPD2 111740Z 11005KT 34/14 A3009 RMK A01 T03400136  RH  029%=      5-min Rain = 0
KPD2 111741Z 15006G12KT 34/14 A3009 RMK A01 T03410135  RH  029%=      5-min Rain = 0
KPD2 111742Z 16009KT 35/14 A3009 RMK A01 T03450137  RH  029%=      5-min Rain = 0
KPD2 111743Z 15010KT 35/13 A3009 RMK A01 T03460134  RH  028%=      5-min Rain = 0
KPD2 111744Z 16008KT 34/13 A3009 RMK A01 T03430130  RH  028%=      5-min Rain = 0
KPD2 111745Z 16010KT 34/12 A3009 RMK A01 T03390117  RH  026%=      5-min Rain = 0
KPD2 111746Z 16006KT 34/11 A301 RMK A01 T03370106  RH  024%=      5-min Rain = 0
KPD2 111747Z 14012G17KT 34/12 A3009 RMK A01 T03370116  RH  026%=      5-min Rain = 0
KPD2 111748Z 15011G16KT 34/12 A301 RMK A01 T03370123  RH  027%=      5-min Rain = 0
KPD2 111749Z 17013KT 34/12 A301 RMK A01 T03380120  RH  027%=      5-min Rain = 0
KPD2 111750Z 18008KT 34/11 A301 RMK A01 T03350113  RH  026%=      5-min Rain = 0
KPD2 111751Z 18011KT 33/11 A301 RMK A01 T03320114  RH  026%=      5-min Rain = 0
KPD2 111752Z 20009KT 33/11 A3009 RMK A01 T03300112  RH  026%=      5-min Rain = 0
KPD2 111753Z 17008G13KT 33/11 A3009 RMK A01 T03300113  RH  027%=      5-min Rain = 0
KPD2 111754Z 16011KT 33/12 A3009 RMK A01 T03330115  RH  027%=      5-min Rain = 0
KPD2 111755Z 15010KT 34/12 A3009 RMK A01 T03350116  RH  026%=      5-min Rain = 0
KPD2 111756Z 15011G17KT 34/12 A3009 RMK A01 T03360117  RH  026%=      5-min Rain = 0
KPD2 111757Z 15011KT 34/12 A3009 RMK A01 T03370120  RH  027%=      5-min Rain = 0
KPD2 111758Z 14012KT 34/12 A3009 RMK A01 T03360121  RH  027%=      5-min Rain = 0
KPD2 111759Z 15010KT 34/12 A3009 RMK A01 T03360119  RH  027%=      5-min Rain = 0
KPD2 111800Z 15010KT 34/12 A3009 RMK A01 T03360121  RH  027%=      5-min Rain = 0
KPD2 111801Z 16008KT 34/12 A3009 RMK A01 T03360124  RH  028%=      5-min Rain = 0
KPD2 111802Z 16007KT 34/13 A3009 RMK A01 T03360126  RH  028%=      5-min Rain = 0
KPD2 111803Z 15006KT 34/13 A3009 RMK A01 T03370127  RH  028%=      5-min Rain = 0
KPD2 111804Z 13011G18KT 34/13 A3008 RMK A01 T03350127  RH  028%=      5-min Rain = 0
KPD2 111805Z 14013G18KT 34/13 A3009 RMK A01 T03390128  RH  028%=      5-min Rain = 0
KPD2 111806Z 17011KT 34/13 A3009 RMK A01 T03410127  RH  027%=      5-min Rain = 0
KPD2 111807Z 17004G10KT 34/13 A3009 RMK A01 T03410128  RH  028%=      5-min Rain = 0
KPD2 111808Z 20012G17KT 34/13 A3008 RMK A01 T03380127  RH  028%=      5-min Rain = 0
KPD2 111809Z 19009KT 34/13 A3008 RMK A01 T03390129  RH  028%=      5-min Rain = 0
KPD2 111810Z 17006KT 34/13 A3008 RMK A01 T03410129  RH  028%=      5-min Rain = 0
KPD2 111811Z 16011G16KT 34/13 A3008 RMK A01 T03390130  RH  028%=      5-min Rain = 0
KPD2 111812Z 16014G19KT 34/13 A3009 RMK A01 T03430134  RH  028%=      5-min Rain = 0
KPD2 111813Z 15013G18KT 35/13 A3009 RMK A01 T03460133  RH  028%=      5-min Rain = 0
KPD2 111814Z 15014G19KT 34/13 A3009 RMK A01 T03430132  RH  028%=      5-min Rain = 0
KPD2 111815Z 16012KT 34/13 A3009 RMK A01 T03430129  RH  028%=      5-min Rain = 0
KPD2 111816Z 16005G10KT 34/13 A3008 RMK A01 T03420126  RH  027%=      5-min Rain = 0
KPD2 111817Z 17005KT 34/13 A3008 RMK A01 T03420127  RH  027%=      5-min Rain = 0
KPD2 111818Z 13003KT 34/13 A3008 RMK A01 T03400126  RH  027%=      5-min Rain = 0
KPD2 111819Z 21004G9KT 34/13 A3008 RMK A01 T03410127  RH  028%=      5-min Rain = 0
KPD2 111820Z 21009KT 34/13 A3008 RMK A01 T03440130  RH  027%=      5-min Rain = 0
KPD2 111821Z 21005KT 35/12 A3008 RMK A01 T03480124  RH  026%=      5-min Rain = 0
KPD2 111822Z 16007KT 35/12 A3008 RMK A01 T03460124  RH  026%=      5-min Rain = 0
KPD2 111823Z 16011KT 35/12 A3008 RMK A01 T03460118  RH  025%=      5-min Rain = 0
KPD2 111824Z 17012KT 35/12 A3008 RMK A01 T03490117  RH  025%=      5-min Rain = 0
KPD2 111825Z 15006G12KT 35/12 A3008 RMK A01 T03450119  RH  025%=      5-min Rain = 0
KPD2 111826Z 18006G12KT 34/12 A3008 RMK A01 T03430121  RH  026%=      5-min Rain = 0
KPD2 111827Z 16009KT 34/12 A3008 RMK A01 T03430121  RH  026%=      5-min Rain = 0
KPD2 111828Z 18006KT 34/12 A3008 RMK A01 T03430120  RH  026%=      5-min Rain = 0
KPD2 111829Z 17006KT 34/12 A3007 RMK A01 T03440121  RH  026%=      5-min Rain = 0
KPD2 111830Z 14006KT 35/12 A3007 RMK A01 T03450122  RH  026%=      5-min Rain = 0
KPD2 111831Z 16007KT 35/12 A3007 RMK A01 T03500123  RH  025%=      5-min Rain = 0
KPD2 111832Z 17005KT 35/12 A3007 RMK A01 T03530122  RH  025%=      5-min Rain = 0
KPD2 111833Z 19005KT 36/12 A3007 RMK A01 T03550121  RH  025%=      5-min Rain = 0
KPD2 111834Z 20006G12KT 36/12 A3007 RMK A01 T03550124  RH  025%=      5-min Rain = 0
KPD2 111835Z 22005G10KT 35/12 A3007 RMK A01 T03540124  RH  025%=      5-min Rain = 0
KPD2 111836Z 19007KT 36/12 A3007 RMK A01 T03550124  RH  025%=      5-min Rain = 0
KPD2 111837Z 18005KT 36/12 A3007 RMK A01 T03550122  RH  025%=      5-min Rain = 0
KPD2 111838Z 14010KT 36/12 A3007 RMK A01 T03570124  RH  025%=      5-min Rain = 0
KPD2 111839Z 16013G18KT 36/12 A3007 RMK A01 T03580122  RH  024%=      5-min Rain = 0
KPD2 111840Z 18008KT 36/12 A3007 RMK A01 T03550119  RH  024%=      5-min Rain = 0
KPD2 111841Z 17007KT 35/12 A3007 RMK A01 T03520121  RH  025%=      5-min Rain = 0
KPD2 111842Z 15007KT 35/12 A3007 RMK A01 T03510120  RH  025%=      5-min Rain = 0
KPD2 111843Z 18010G15KT 35/12 A3007 RMK A01 T03510121  RH  025%=      5-min Rain = 0
KPD2 111844Z 18008G13KT 35/12 A3007 RMK A01 T03500122  RH  025%=      5-min Rain = 0
KPD2 111845Z 15008G13KT 35/12 A3007 RMK A01 T03500119  RH  025%=      5-min Rain = 0
KPD2 111846Z 16011G16KT 35/12 A3007 RMK A01 T03540116  RH  024%=      5-min Rain = 0
KPD2 111847Z 14013G19KT 36/12 A3007 RMK A01 T03550116  RH  024%=      5-min Rain = 0
KPD2 111848Z 14016KT 36/12 A3007 RMK A01 T03560118  RH  024%=      5-min Rain = 0
KPD2 111849Z 14014G20KT 35/11 A3007 RMK A01 T03530113  RH  023%=      5-min Rain = 0
KPD2 111850Z 15009KT 35/11 A3007 RMK A01 T03500111  RH  024%=      5-min Rain = 0
KPD2 111851Z 13011G19KT 35/11 A3007 RMK A01 T03500112  RH  024%=      5-min Rain = 0
KPD2 111852Z 13011G18KT 35/11 A3007 RMK A01 T03520110  RH  023%=      5-min Rain = 0
KPD2 111853Z 14018G25KT 35/11 A3007 RMK A01 T03530111  RH  023%=      5-min Rain = 0
KPD2 111854Z 15012G17KT 35/12 A3007 RMK A01 T03520115  RH  024%=      5-min Rain = 0
KPD2 111855Z 13010G17KT 35/12 A3006 RMK A01 T03510118  RH  024%=      5-min Rain = 0
KPD2 111856Z 14015G20KT 35/12 A3006 RMK A01 T03520120  RH  025%=      5-min Rain = 0
KPD2 111857Z 13013KT 36/12 A3007 RMK A01 T03560120  RH  024%=      5-min Rain = 0
KPD2 111858Z 13011G16KT 36/12 A3006 RMK A01 T03570121  RH  024%=      5-min Rain = 0
KPD2 111859Z 15014G19KT 36/12 A3006 RMK A01 T03590122  RH  024%=      5-min Rain = 0
KPD2 111900Z 15015KT 36/12 A3007 RMK A01 T03580123  RH  024%=      5-min Rain = 0
KPD2 111901Z 14011KT 35/12 A3007 RMK A01 T03530124  RH  025%=      5-min Rain = 0
KPD2 111902Z 13012G18KT 35/13 A3006 RMK A01 T03520126  RH  026%=      5-min Rain = 0
KPD2 111903Z 13010KT 35/13 A3006 RMK A01 T03530126  RH  025%=      5-min Rain = 0
KPD2 111904Z 14009G15KT 35/13 A3006 RMK A01 T03500126  RH  026%=      5-min Rain = 0
KPD2 111905Z 15016KT 35/13 A3006 RMK A01 T03470128  RH  027%=      5-min Rain = 0
KPD2 111906Z 16015G20KT 34/13 A3006 RMK A01 T03430131  RH  028%=      5-min Rain = 0
KPD2 111907Z 18011KT 34/13 A3006 RMK A01 T03430132  RH  028%=      5-min Rain = 0
KPD2 111908Z 18011G17KT 34/13 A3006 RMK A01 T03440133  RH  028%=      5-min Rain = 0
KPD2 111909Z 17011G16KT 34/13 A3006 RMK A01 T03440133  RH  028%=      5-min Rain = 0
KPD2 111910Z 15011G17KT 34/13 A3006 RMK A01 T03420134  RH  028%=      5-min Rain = 0
KPD2 111911Z 14011KT 34/14 A3006 RMK A01 T03430135  RH  029%=      5-min Rain = 0
KPD2 111912Z 14012KT 34/14 A3006 RMK A01 T03420135  RH  029%=      5-min Rain = 0
KPD2 111913Z 14013G20KT 34/14 A3006 RMK A01 T03400136  RH  029%=      5-min Rain = 0
KPD2 111914Z 14018G25KT 34/14 A3006 RMK A01 T03390136  RH  029%=      5-min Rain = 0
KPD2 111915Z 16008KT 34/14 A3006 RMK A01 T03380136  RH  030%=      5-min Rain = 0
KPD2 111916Z 17011KT 34/14 A3007 RMK A01 T03400137  RH  029%=      5-min Rain = 0
KPD2 111917Z 15008KT 34/14 A3006 RMK A01 T03410135  RH  029%=      5-min Rain = 0
KPD2 111918Z 17007KT 34/14 A3006 RMK A01 T03410138  RH  029%=      5-min Rain = 0
KPD2 111919Z 15006KT 34/14 A3006 RMK A01 T03410139  RH  030%=      5-min Rain = 0
KPD2 111920Z 21004KT 34/14 A3006 RMK A01 T03410139  RH  030%=      5-min Rain = 0
KPD2 111921Z 16007KT 35/14 A3006 RMK A01 T03450141  RH  029%=      5-min Rain = 0
KPD2 111922Z 19005KT 35/14 A3006 RMK A01 T03500141  RH  029%=      5-min Rain = 0
KPD2 111923Z 20006KT 35/14 A3006 RMK A01 T03510143  RH  029%=      5-min Rain = 0
KPD2 111924Z 17005KT 35/14 A3006 RMK A01 T03520143  RH  029%=      5-min Rain = 0
KPD2 111925Z 14010G17KT 35/14 A3006 RMK A01 T03540141  RH  028%=      5-min Rain = 0
KPD2 111926Z 16013KT 36/14 A3006 RMK A01 T03550138  RH  027%=      5-min Rain = 0
KPD2 111927Z 15011G19KT 35/14 A3006 RMK A01 T03480136  RH  028%=      5-min Rain = 0
KPD2 111928Z 15012KT 34/14 A3006 RMK A01 T03440136  RH  029%=      5-min Rain = 0
KPD2 111929Z 17014G19KT 35/14 A3006 RMK A01 T03460136  RH  028%=      5-min Rain = 0
KPD2 111930Z 17009G16KT 35/14 A3006 RMK A01 T03460135  RH  028%=      5-min Rain = 0
KPD2 111931Z 18010KT 35/14 A3006 RMK A01 T03460135  RH  028%=      5-min Rain = 0
KPD2 111932Z 16012G17KT 34/14 A3006 RMK A01 T03440135  RH  028%=      5-min Rain = 0
KPD2 111933Z 14010KT 34/13 A3006 RMK A01 T03440134  RH  028%=      5-min Rain = 0
KPD2 111934Z 14011KT 34/14 A3005 RMK A01 T03440136  RH  029%=      5-min Rain = 0
KPD2 111935Z 14012KT 34/14 A3006 RMK A01 T03440136  RH  029%=      5-min Rain = 0
KPD2 111936Z 18010G16KT 35/14 A3006 RMK A01 T03460135  RH  028%=      5-min Rain = 0
KPD2 111937Z 19008KT 34/14 A3005 RMK A01 T03440135  RH  028%=      5-min Rain = 0
KPD2 111938Z 20007KT 35/14 A3005 RMK A01 T03450137  RH  029%=      5-min Rain = 0
KPD2 111939Z 21006KT 35/14 A3005 RMK A01 T03470138  RH  028%=      5-min Rain = 0
KPD2 111940Z 22006G13KT 35/14 A3005 RMK A01 T03510140  RH  028%=      5-min Rain = 0
KPD2 111941Z 24012KT 36/14 A3005 RMK A01 T03560144  RH  028%=      5-min Rain = 0
KPD2 111942Z 24005G12KT 36/14 A3005 RMK A01 T03570142  RH  028%=      5-min Rain = 0
KPD2 111943Z 17005KT 36/14 A3005 RMK A01 T03590141  RH  027%=      5-min Rain = 0
KPD2 111944Z 16007KT 36/14 A3005 RMK A01 T03610138  RH  026%=      5-min Rain = 0
KPD2 111945Z 19007G12KT 36/14 A3005 RMK A01 T03590139  RH  027%=      5-min Rain = 0
KPD2 111946Z 18011KT 36/14 A3005 RMK A01 T03560140  RH  028%=      5-min Rain = 0
KPD2 111947Z 19010G16KT 35/14 A3005 RMK A01 T03530139  RH  028%=      5-min Rain = 0
KPD2 111948Z 17007KT 35/14 A3005 RMK A01 T03490140  RH  029%=      5-min Rain = 0
KPD2 111949Z 14011G16KT 35/14 A3005 RMK A01 T03500140  RH  028%=      5-min Rain = 0
KPD2 111950Z 12012G17KT 35/14 A3005 RMK A01 T03490141  RH  029%=      5-min Rain = 0
KPD2 111951Z 16012G18KT 35/14 A3005 RMK A01 T03530141  RH  028%=      5-min Rain = 0
KPD2 111952Z 14010KT 36/14 A3005 RMK A01 T03550142  RH  028%=      5-min Rain = 0
KPD2 111953Z 19006G12KT 36/14 A3005 RMK A01 T03580142  RH  028%=      5-min Rain = 0
KPD2 111954Z 22010KT 36/14 A3005 RMK A01 T03580143  RH  028%=      5-min Rain = 0
KPD2 111955Z 22007KT 36/15 A3005 RMK A01 T03590146  RH  028%=      5-min Rain = 0
KPD2 111956Z 18003KT 36/14 A3005 RMK A01 T03590144  RH  028%=      5-min Rain = 0
KPD2 111957Z 17009G17KT 36/14 A3005 RMK A01 T03600144  RH  028%=      5-min Rain = 0
KPD2 111958Z 18008G15KT 36/14 A3005 RMK A01 T03600143  RH  027%=      5-min Rain = 0
KPD2 111959Z 17004G9KT 36/14 A3005 RMK A01 T03570143  RH  028%=      5-min Rain = 0
KPD2 112000Z 17011KT 36/14 A3005 RMK A01 T03560143  RH  028%=      5-min Rain = 0
KPD2 112001Z 18007G12KT 36/14 A3005 RMK A01 T03560143  RH  028%=      5-min Rain = 0
KPD2 112002Z 17007G14KT 35/14 A3004 RMK A01 T03540144  RH  029%=      5-min Rain = 0
KPD2 112003Z 17007KT 36/14 A3004 RMK A01 T03550143  RH  028%=      5-min Rain = 0
KPD2 112004Z 18009G14KT 35/14 A3004 RMK A01 T03530143  RH  028%=      5-min Rain = 0
KPD2 112005Z 18010G15KT 35/14 A3004 RMK A01 T03490143  RH  029%=      5-min Rain = 0
KPD2 112006Z 19011G16KT 35/14 A3004 RMK A01 T03520143  RH  029%=      5-min Rain = 0
KPD2 112007Z 18009KT 35/14 A3004 RMK A01 T03510141  RH  028%=      5-min Rain = 0
KPD2 112008Z 15011KT 35/14 A3004 RMK A01 T03500141  RH  029%=      5-min Rain = 0
KPD2 112009Z 15014G20KT 35/14 A3004 RMK A01 T03500140  RH  028%=      5-min Rain = 0
KPD2 112010Z 16015G20KT 35/14 A3004 RMK A01 T03490140  RH  029%=      5-min Rain = 0
KPD2 112011Z 17012KT 35/14 A3004 RMK A01 T03480139  RH  029%=      5-min Rain = 0
KPD2 112012Z 16014KT 35/14 A3004 RMK A01 T03470139  RH  029%=      5-min Rain = 0
KPD2 112013Z 16016G21KT 35/14 A3004 RMK A01 T03470139  RH  029%=      5-min Rain = 0
KPD2 112014Z 14014KT 35/14 A3004 RMK A01 T03480139  RH  029%=      5-min Rain = 0
KPD2 112015Z 16012G17KT 35/14 A3004 RMK A01 T03490139  RH  028%=      5-min Rain = 0
KPD2 112016Z 19010KT 35/14 A3004 RMK A01 T03500138  RH  028%=      5-min Rain = 0
KPD2 112017Z 17006KT 35/14 A3004 RMK A01 T03470137  RH  028%=      5-min Rain = 0
KPD2 112018Z 16007KT 34/14 A3003 RMK A01 T03430137  RH  029%=      5-min Rain = 0
KPD2 112019Z 16012KT 34/14 A3003 RMK A01 T03430137  RH  029%=      5-min Rain = 0
KPD2 112020Z 14013G21KT 35/14 A3003 RMK A01 T03450138  RH  029%=      5-min Rain = 0
KPD2 112021Z 17015G21KT 35/14 A3003 RMK A01 T03480136  RH  028%=      5-min Rain = 0
KPD2 112022Z 15012G17KT 35/14 A3003 RMK A01 T03480135  RH  028%=      5-min Rain = 0
KPD2 112023Z 16009KT 35/14 A3003 RMK A01 T03460135  RH  028%=      5-min Rain = 0
KPD2 112024Z 15005KT 35/14 A3003 RMK A01 T03450135  RH  028%=      5-min Rain = 0
KPD2 112025Z 17005KT 35/14 A3003 RMK A01 T03460136  RH  028%=      5-min Rain = 0
KPD2 112026Z 18008G14KT 35/14 A3003 RMK A01 T03490137  RH  028%=      5-min Rain = 0
KPD2 112027Z 16010G16KT 35/14 A3003 RMK A01 T03540138  RH  027%=      5-min Rain = 0
KPD2 112028Z 13013KT 36/14 A3003 RMK A01 T03570138  RH  027%=      5-min Rain = 0
KPD2 112029Z 14010KT 36/14 A3003 RMK A01 T03550136  RH  027%=      5-min Rain = 0
KPD2 112030Z 15008KT 35/14 A3003 RMK A01 T03510136  RH  028%=      5-min Rain = 0
KPD2 112031Z 15008KT 35/14 A3003 RMK A01 T03480136  RH  028%=      5-min Rain = 0
KPD2 112032Z 15017G22KT 35/14 A3003 RMK A01 T03480135  RH  028%=      5-min Rain = 0
KPD2 112033Z 15009G17KT 35/13 A3003 RMK A01 T03500134  RH  027%=      5-min Rain = 0
KPD2 112034Z 16010G15KT 35/14 A3003 RMK A01 T03530135  RH  027%=      5-min Rain = 0
KPD2 112035Z 14008G13KT 36/13 A3003 RMK A01 T03550133  RH  026%=      5-min Rain = 0
KPD2 112036Z 15007KT 36/13 A3003 RMK A01 T03550134  RH  027%=      5-min Rain = 0
KPD2 112037Z 15011KT 35/13 A3003 RMK A01 T03530133  RH  027%=      5-min Rain = 0
KPD2 112038Z 14013G19KT 35/13 A3003 RMK A01 T03540131  RH  026%=      5-min Rain = 0
KPD2 112039Z 13016KT 36/13 A3003 RMK A01 T03550131  RH  026%=      5-min Rain = 0
KPD2 112040Z 15011G17KT 36/13 A3003 RMK A01 T03580131  RH  026%=      5-min Rain = 0
KPD2 112041Z 15014G20KT 36/13 A3003 RMK A01 T03590132  RH  026%=      5-min Rain = 0
KPD2 112042Z 16007G14KT 36/13 A3003 RMK A01 T03570132  RH  026%=      5-min Rain = 0
KPD2 112043Z 18011G18KT 36/13 A3003 RMK A01 T03550133  RH  026%=      5-min Rain = 0
KPD2 112044Z 19011G20KT 36/13 A3003 RMK A01 T03550134  RH  026%=      5-min Rain = 0
KPD2 112045Z 22009KT 35/14 A3002 RMK A01 T03510135  RH  027%=      5-min Rain = 0
KPD2 112046Z 16007KT 35/14 A3002 RMK A01 T03520136  RH  027%=      5-min Rain = 0
KPD2 112047Z 15016G24KT 36/14 A3002 RMK A01 T03560136  RH  027%=      5-min Rain = 0
KPD2 112048Z 16016KT 36/14 A3003 RMK A01 T03580135  RH  026%=      5-min Rain = 0
KPD2 112049Z 17013G19KT 35/13 A3003 RMK A01 T03530134  RH  027%=      5-min Rain = 0
KPD2 112050Z 18008KT 35/13 A3003 RMK A01 T03460133  RH  028%=      5-min Rain = 0
KPD2 112051Z 14011KT 34/13 A3003 RMK A01 T03440133  RH  028%=      5-min Rain = 0
KPD2 112052Z 14012KT 34/13 A3003 RMK A01 T03430134  RH  028%=      5-min Rain = 0
KPD2 112053Z 15012KT 34/13 A3002 RMK A01 T03420133  RH  028%=      5-min Rain = 0
KPD2 112054Z 16015G20KT 34/13 A3003 RMK A01 T03420134  RH  029%=      5-min Rain = 0
KPD2 112055Z 15011G20KT 34/14 A3002 RMK A01 T03440135  RH  028%=      5-min Rain = 0
KPD2 112056Z 14014KT 35/14 A3002 RMK A01 T03470137  RH  028%=      5-min Rain = 0
KPD2 112057Z 15011KT 35/14 A3002 RMK A01 T03500137  RH  028%=      5-min Rain = 0
KPD2 112058Z 16010KT 35/14 A3002 RMK A01 T03540137  RH  027%=      5-min Rain = 0
KPD2 112059Z 18008KT 36/14 A3002 RMK A01 T03550137  RH  027%=      5-min Rain = 0
KPD2 112100Z 15012G22KT 35/14 A3002 RMK A01 T03530138  RH  028%=      5-min Rain = 0
KPD2 112101Z 14015KT 35/14 A3002 RMK A01 T03510137  RH  028%=      5-min Rain = 0
KPD2 112102Z 15009G16KT 35/14 A3002 RMK A01 T03520138  RH  028%=      5-min Rain = 0
KPD2 112103Z 14011G17KT 35/14 A3002 RMK A01 T03540139  RH  027%=      5-min Rain = 0
KPD2 112104Z 14011KT 36/14 A3002 RMK A01 T03570140  RH  027%=      5-min Rain = 0
KPD2 112105Z 18011KT 36/14 A3002 RMK A01 T03570140  RH  027%=      5-min Rain = 0
KPD2 112106Z 15007KT 35/14 A3002 RMK A01 T03540141  RH  028%=      5-min Rain = 0
KPD2 112107Z 14012KT 36/14 A3002 RMK A01 T03550141  RH  028%=      5-min Rain = 0
KPD2 112108Z 16009KT 36/14 A3002 RMK A01 T03550141  RH  028%=      5-min Rain = 0
KPD2 112109Z 15010KT 36/14 A3002 RMK A01 T03580142  RH  027%=      5-min Rain = 0
KPD2 112110Z 15013KT 36/14 A3001 RMK A01 T03590141  RH  027%=      5-min Rain = 0
KPD2 112111Z 14013KT 36/14 A3001 RMK A01 T03590141  RH  027%=      5-min Rain = 0
KPD2 112112Z 10006G12KT 36/14 A3001 RMK A01 T03590141  RH  027%=      5-min Rain = 0
KPD2 112113Z 18004KT 36/14 A3001 RMK A01 T03600142  RH  027%=      5-min Rain = 0
KPD2 112114Z 17005KT 36/14 A3001 RMK A01 T03600142  RH  027%=      5-min Rain = 0
KPD2 112115Z 17009G14KT 36/14 A3001 RMK A01 T03600142  RH  027%=      5-min Rain = 0
KPD2 112116Z 16008KT 36/14 A3001 RMK A01 T03620143  RH  027%=      5-min Rain = 0
KPD2 112117Z 18008KT 36/14 A3001 RMK A01 T03620143  RH  027%=      5-min Rain = 0
KPD2 112118Z 20006G13KT 36/14 A3001 RMK A01 T03620144  RH  027%=      5-min Rain = 0
KPD2 112119Z 19007KT 36/14 A3001 RMK A01 T03620144  RH  027%=      5-min Rain = 0
KPD2 112120Z 20009KT 36/15 A3001 RMK A01 T03630147  RH  028%=      5-min Rain = 0
KPD2 112121Z 20012KT 37/15 A3001 RMK A01 T03660145  RH  027%=      5-min Rain = 0
KPD2 112122Z 21009G14KT 36/14 A3001 RMK A01 T03630143  RH  027%=      5-min Rain = 0
KPD2 112123Z 21012KT 36/14 A3001 RMK A01 T03600144  RH  027%=      5-min Rain = 0
KPD2 112124Z 18011KT 36/14 A3001 RMK A01 T03590143  RH  028%=      5-min Rain = 0
KPD2 112125Z 17009G16KT 36/14 A3001 RMK A01 T03570143  RH  028%=      5-min Rain = 0
KPD2 112126Z 15011KT 36/14 A3001 RMK A01 T03570143  RH  028%=      5-min Rain = 0
KPD2 112127Z 16008KT 36/14 A3001 RMK A01 T03580144  RH  028%=      5-min Rain = 0
KPD2 112128Z 16013KT 36/14 A30 RMK A01 T03580144  RH  028%=      5-min Rain = 0
KPD2 112129Z 15013KT 36/14 A30 RMK A01 T03570143  RH  028%=      5-min Rain = 0
KPD2 112130Z 16018G23KT 36/15 A30 RMK A01 T03600145  RH  028%=      5-min Rain = 0
KPD2 112131Z 16014G20KT 36/14 A30 RMK A01 T03570144  RH  028%=      5-min Rain = 0
KPD2 112132Z 15012KT 35/14 A30 RMK A01 T03520143  RH  029%=      5-min Rain = 0
KPD2 112133Z 16011G18KT 35/14 A30 RMK A01 T03510144  RH  029%=      5-min Rain = 0
KPD2 112134Z 16014KT 35/14 A30 RMK A01 T03510144  RH  029%=      5-min Rain = 0
KPD2 112135Z 16012KT 35/15 A30 RMK A01 T03500145  RH  029%=      5-min Rain = 0
KPD2 112136Z 16012KT 35/15 A30 RMK A01 T03480145  RH  030%=      5-min Rain = 0
KPD2 112137Z 16009G14KT 35/14 A30 RMK A01 T03460144  RH  030%=      5-min Rain = 0
KPD2 112138Z 14012KT 35/15 A30 RMK A01 T03490145  RH  030%=      5-min Rain = 0
KPD2 112139Z 13014KT 35/15 A30 RMK A01 T03520145  RH  029%=      5-min Rain = 0
KPD2 112140Z 13015G21KT 35/15 A30 RMK A01 T03540146  RH  029%=      5-min Rain = 0
KPD2 112141Z 14013KT 36/15 A30 RMK A01 T03550146  RH  029%=      5-min Rain = 0
KPD2 112142Z 14009KT 36/15 A30 RMK A01 T03560147  RH  029%=      5-min Rain = 0
KPD2 112143Z 14010G15KT 36/15 A30 RMK A01 T03570146  RH  028%=      5-min Rain = 0
KPD2 112144Z 14011G20KT 36/15 A2999 RMK A01 T03590148  RH  028%=      5-min Rain = 0
KPD2 112145Z 13014G19KT 36/15 A2999 RMK A01 T03610147  RH  028%=      5-min Rain = 0
KPD2 112146Z 15011KT 36/15 A2999 RMK A01 T03620147  RH  028%=      5-min Rain = 0
KPD2 112147Z 13015G25KT 36/15 A2999 RMK A01 T03620147  RH  028%=      5-min Rain = 0
KPD2 112148Z 13015G26KT 36/15 A2999 RMK A01 T03620146  RH  028%=      5-min Rain = 0
KPD2 112149Z 13011KT 36/15 A2999 RMK A01 T03610146  RH  028%=      5-min Rain = 0
KPD2 112150Z 19011KT 36/15 A30 RMK A01 T03620146  RH  028%=      5-min Rain = 0
KPD2 112151Z 17006KT 36/15 A2999 RMK A01 T03620147  RH  028%=      5-min Rain = 0
KPD2 112152Z 15008G15KT 36/15 A2999 RMK A01 T03640146  RH  027%=      5-min Rain = 0
KPD2 112153Z 15013G18KT 37/15 A2999 RMK A01 T03650146  RH  027%=      5-min Rain = 0
KPD2 112154Z 18011G16KT 36/15 A2999 RMK A01 T03630145  RH  027%=      5-min Rain = 0
KPD2 112155Z 19009KT 36/14 A30 RMK A01 T03600143  RH  027%=      5-min Rain = 0
KPD2 112156Z 19005KT 36/14 A30 RMK A01 T03580143  RH  028%=      5-min Rain = 0
KPD2 112157Z 16009KT 36/14 A2999 RMK A01 T03590144  RH  028%=      5-min Rain = 0
KPD2 112158Z 18008KT 36/14 A2999 RMK A01 T03610143  RH  027%=      5-min Rain = 0
KPD2 112159Z 18009G15KT 36/14 A30 RMK A01 T03610143  RH  027%=      5-min Rain = 0
KPD2 112200Z 18004G10KT 36/14 A2999 RMK A01 T03610140  RH  027%=      5-min Rain = 0
KPD2 112201Z 15011G16KT 36/14 A2999 RMK A01 T03570141  RH  027%=      5-min Rain = 0
KPD2 112202Z 14010G15KT 36/14 A2999 RMK A01 T03600141  RH  027%=      5-min Rain = 0
KPD2 112203Z 15013G18KT 36/14 A2999 RMK A01 T03630141  RH  027%=      5-min Rain = 0
KPD2 112204Z 17010G15KT 36/14 A2999 RMK A01 T03640141  RH  027%=      5-min Rain = 0
KPD2 112205Z 20009KT 36/14 A2999 RMK A01 T03610142  RH  027%=      5-min Rain = 0
KPD2 112206Z 15008G13KT 36/14 A2999 RMK A01 T03610142  RH  027%=      5-min Rain = 0
KPD2 112207Z 15010G15KT 36/14 A2999 RMK A01 T03640144  RH  027%=      5-min Rain = 0
KPD2 112208Z 16008G14KT 37/14 A2999 RMK A01 T03660144  RH  027%=      5-min Rain = 0
KPD2 112209Z 16014KT 37/14 A2999 RMK A01 T03650143  RH  027%=      5-min Rain = 0
KPD2 112210Z 16009KT 36/14 A2999 RMK A01 T03620142  RH  027%=      5-min Rain = 0
KPD2 112211Z 14010G21KT 36/14 A2999 RMK A01 T03590143  RH  028%=      5-min Rain = 0
KPD2 112212Z 14013G19KT 36/14 A2999 RMK A01 T03620143  RH  027%=      5-min Rain = 0
KPD2 112213Z 16011G16KT 36/14 A2999 RMK A01 T03630142  RH  027%=      5-min Rain = 0
KPD2 112214Z 15013G23KT 36/14 A2999 RMK A01 T03630141  RH  027%=      5-min Rain = 0
KPD2 112215Z 16018G23KT 36/14 A2999 RMK A01 T03580140  RH  027%=      5-min Rain = 0
KPD2 112216Z 16014G22KT 35/14 A2999 RMK A01 T03530140  RH  028%=      5-min Rain = 0
KPD2 112217Z 16011G16KT 35/14 A2999 RMK A01 T03510140  RH  028%=      5-min Rain = 0
KPD2 112218Z 16015KT 35/14 A2999 RMK A01 T03540141  RH  028%=      5-min Rain = 0
KPD2 112219Z 16015KT 36/14 A2999 RMK A01 T03560140  RH  028%=      5-min Rain = 0
KPD2 112220Z 16015G22KT 36/14 A2999 RMK A01 T03560141  RH  028%=      5-min Rain = 0
KPD2 112221Z 15011G17KT 36/14 A2999 RMK A01 T03550140  RH  028%=      5-min Rain = 0
KPD2 112222Z 17012G17KT 36/14 A2999 RMK A01 T03550141  RH  028%=      5-min Rain = 0
KPD2 112223Z 19012KT 36/14 A2999 RMK A01 T03560140  RH  028%=      5-min Rain = 0
KPD2 112224Z 18010KT 36/14 A2998 RMK A01 T03580141  RH  027%=      5-min Rain = 0
KPD2 112225Z 15009KT 36/14 A2998 RMK A01 T03600141  RH  027%=      5-min Rain = 0
KPD2 112226Z 14013KT 36/14 A2999 RMK A01 T03620142  RH  027%=      5-min Rain = 0
KPD2 112227Z 17013G20KT 36/14 A2999 RMK A01 T03640141  RH  026%=      5-min Rain = 0
KPD2 112228Z 16010G15KT 36/14 A2998 RMK A01 T03580140  RH  027%=      5-min Rain = 0
KPD2 112229Z 17014KT 36/14 A2998 RMK A01 T03570141  RH  027%=      5-min Rain = 0
KPD2 112230Z 17014G20KT 36/14 A2998 RMK A01 T03550140  RH  028%=      5-min Rain = 0
KPD2 112231Z 17009KT 35/14 A2998 RMK A01 T03510140  RH  028%=      5-min Rain = 0
KPD2 112232Z 13010KT 35/14 A2998 RMK A01 T03500141  RH  029%=      5-min Rain = 0
KPD2 112233Z 15010KT 35/14 A2998 RMK A01 T03540140  RH  028%=      5-min Rain = 0
KPD2 112234Z 15014G19KT 36/14 A2999 RMK A01 T03570141  RH  027%=      5-min Rain = 0
KPD2 112235Z 16014G19KT 36/14 A2999 RMK A01 T03580141  RH  027%=      5-min Rain = 0
KPD2 112236Z 16011KT 36/14 A2998 RMK A01 T03560141  RH  028%=      5-min Rain = 0
KPD2 112237Z 16009KT 36/14 A2998 RMK A01 T03550141  RH  028%=      5-min Rain = 0
KPD2 112238Z 18009KT 36/14 A2998 RMK A01 T03550141  RH  028%=      5-min Rain = 0
KPD2 112239Z 14010G15KT 35/14 A2998 RMK A01 T03540141  RH  028%=      5-min Rain = 0
KPD2 112240Z 13012G19KT 36/14 A2998 RMK A01 T03550141  RH  028%=      5-min Rain = 0
KPD2 112241Z 13011KT 36/14 A2998 RMK A01 T03580142  RH  028%=      5-min Rain = 0
KPD2 112242Z 13015KT 36/14 A2998 RMK A01 T03620143  RH  027%=      5-min Rain = 0
KPD2 112243Z 14014G20KT 36/14 A2998 RMK A01 T03630143  RH  027%=      5-min Rain = 0
KPD2 112244Z 15014G20KT 36/14 A2999 RMK A01 T03630142  RH  027%=      5-min Rain = 0
KPD2 112245Z 16008G14KT 36/14 A2999 RMK A01 T03620143  RH  027%=      5-min Rain = 0
KPD2 112246Z 14009KT 36/14 A2998 RMK A01 T03600143  RH  027%=      5-min Rain = 0
KPD2 112247Z 13010G15KT 36/14 A2998 RMK A01 T03600144  RH  028%=      5-min Rain = 0
KPD2 112248Z 14014KT 36/14 A2998 RMK A01 T03610144  RH  027%=      5-min Rain = 0
KPD2 112249Z 14012KT 36/14 A2998 RMK A01 T03620144  RH  027%=      5-min Rain = 0
KPD2 112250Z 15015KT 36/14 A2998 RMK A01 T03610144  RH  027%=      5-min Rain = 0
KPD2 112251Z 14012KT 36/14 A2998 RMK A01 T03570143  RH  028%=      5-min Rain = 0
KPD2 112252Z 15008KT 35/14 A2998 RMK A01 T03540143  RH  028%=      5-min Rain = 0
KPD2 112253Z 14013G18KT 35/14 A2998 RMK A01 T03540143  RH  028%=      5-min Rain = 0
KPD2 112254Z 15014G24KT 36/14 A2998 RMK A01 T03570144  RH  028%=      5-min Rain = 0
KPD2 112255Z 16011KT 36/14 A2998 RMK A01 T03580144  RH  028%=      5-min Rain = 0
KPD2 112256Z 15011G19KT 36/15 A2998 RMK A01 T03580145  RH  028%=      5-min Rain = 0
KPD2 112257Z 14013KT 36/15 A2998 RMK A01 T03580145  RH  028%=      5-min Rain = 0
KPD2 112258Z 14013G18KT 36/15 A2998 RMK A01 T03600145  RH  028%=      5-min Rain = 0
KPD2 112259Z 14015KT 36/15 A2998 RMK A01 T03620145  RH  027%=      5-min Rain = 0
KPD2 112300Z 13013KT 36/15 A2998 RMK A01 T03590145  RH  028%=      5-min Rain = 0
KPD2 112301Z 14019G30KT 36/15 A2998 RMK A01 T03590145  RH  028%=      5-min Rain = 0
KPD2 112302Z 14014G21KT 36/14 A2998 RMK A01 T03590144  RH  028%=      5-min Rain = 0
KPD2 112303Z 16015G22KT 36/14 A2999 RMK A01 T03590144  RH  028%=      5-min Rain = 0
KPD2 112304Z 15011G18KT 36/14 A2999 RMK A01 T03560143  RH  028%=      5-min Rain = 0
KPD2 112305Z 14010G16KT 35/14 A2999 RMK A01 T03540143  RH  028%=      5-min Rain = 0
KPD2 112306Z 19009G15KT 35/14 A2999 RMK A01 T03540143  RH  028%=      5-min Rain = 0
KPD2 112307Z 23012KT 36/15 A2998 RMK A01 T03550145  RH  029%=      5-min Rain = 0
KPD2 112308Z 18006G11KT 36/15 A2998 RMK A01 T03560145  RH  028%=      5-min Rain = 0
KPD2 112309Z 14004KT 36/14 A2998 RMK A01 T03560144  RH  028%=      5-min Rain = 0
KPD2 112310Z 16011KT 36/15 A2998 RMK A01 T03550145  RH  028%=      5-min Rain = 0
KPD2 112311Z 15009G14KT 36/14 A2998 RMK A01 T03560144  RH  028%=      5-min Rain = 0
KPD2 112312Z 15011KT 36/14 A2998 RMK A01 T03550144  RH  028%=      5-min Rain = 0
KPD2 112313Z 17007KT 35/14 A2998 RMK A01 T03530143  RH  029%=      5-min Rain = 0
KPD2 112314Z 15012KT 35/14 A2998 RMK A01 T03510143  RH  029%=      5-min Rain = 0
KPD2 112315Z 15010KT 35/14 A2998 RMK A01 T03500142  RH  029%=      5-min Rain = 0
KPD2 112316Z 14013G18KT 35/14 A2998 RMK A01 T03480142  RH  029%=      5-min Rain = 0
KPD2 112317Z 13013KT 35/14 A2998 RMK A01 T03490141  RH  029%=      5-min Rain = 0
KPD2 112318Z 14011G17KT 35/14 A2998 RMK A01 T03480141  RH  029%=      5-min Rain = 0
KPD2 112319Z 15012G17KT 35/14 A2999 RMK A01 T03470142  RH  029%=      5-min Rain = 0
KPD2 112320Z 17011KT 35/14 A2999 RMK A01 T03470142  RH  029%=      5-min Rain = 0
KPD2 112321Z 17011G16KT 35/14 A2998 RMK A01 T03480141  RH  029%=      5-min Rain = 0
KPD2 112322Z 19011KT 35/14 A2998 RMK A01 T03480142  RH  029%=      5-min Rain = 0
KPD2 112323Z 19009KT 35/14 A2998 RMK A01 T03480142  RH  029%=      5-min Rain = 0
KPD2 112324Z 18012G20KT 35/14 A2999 RMK A01 T03500143  RH  029%=      5-min Rain = 0
KPD2 112325Z 17013G18KT 35/14 A2998 RMK A01 T03500142  RH  029%=      5-min Rain = 0
KPD2 112326Z 15012G19KT 35/14 A2998 RMK A01 T03480142  RH  029%=      5-min Rain = 0
KPD2 112327Z 16014KT 35/14 A2998 RMK A01 T03490141  RH  029%=      5-min Rain = 0
KPD2 112328Z 16010KT 35/14 A2998 RMK A01 T03500141  RH  029%=      5-min Rain = 0
KPD2 112329Z 15009KT 35/14 A2998 RMK A01 T03510141  RH  028%=      5-min Rain = 0
KPD2 112330Z 16015G20KT 35/14 A2998 RMK A01 T03510142  RH  029%=      5-min Rain = 0
KPD2 112331Z 15010KT 35/14 A2998 RMK A01 T03520141  RH  028%=      5-min Rain = 0
KPD2 112332Z 17010KT 35/14 A2998 RMK A01 T03520141  RH  028%=      5-min Rain = 0
KPD2 112333Z 16012KT 35/14 A2998 RMK A01 T03530142  RH  028%=      5-min Rain = 0
KPD2 112334Z 15009KT 36/14 A2998 RMK A01 T03550143  RH  028%=      5-min Rain = 0
KPD2 112335Z 15011G19KT 36/14 A2998 RMK A01 T03560143  RH  028%=      5-min Rain = 0
KPD2 112336Z 15012G19KT 36/14 A2998 RMK A01 T03560143  RH  028%=      5-min Rain = 0
KPD2 112337Z 18012KT 36/14 A2998 RMK A01 T03550143  RH  028%=      5-min Rain = 0
KPD2 112338Z 17008KT 35/14 A2998 RMK A01 T03520143  RH  029%=      5-min Rain = 0
KPD2 112339Z 15007G13KT 35/14 A2998 RMK A01 T03520144  RH  029%=      5-min Rain = 0
KPD2 112340Z 14017KT 35/14 A2998 RMK A01 T03540143  RH  028%=      5-min Rain = 0
KPD2 112341Z 14015KT 35/14 A2998 RMK A01 T03500141  RH  029%=      5-min Rain = 0
KPD2 112342Z 15014KT 35/14 A2998 RMK A01 T03470141  RH  029%=      5-min Rain = 0
KPD2 112343Z 14013KT 35/14 A2998 RMK A01 T03460140  RH  029%=      5-min Rain = 0
KPD2 112344Z 14013G19KT 35/14 A2998 RMK A01 T03450140  RH  029%=      5-min Rain = 0
KPD2 112345Z 15014KT 34/14 A2998 RMK A01 T03440139  RH  029%=      5-min Rain = 0
KPD2 112346Z 14010KT 35/14 A2998 RMK A01 T03450140  RH  029%=      5-min Rain = 0
KPD2 112347Z 14012KT 34/14 A2998 RMK A01 T03440140  RH  029%=      5-min Rain = 0
KPD2 112348Z 14011KT 34/14 A2998 RMK A01 T03440139  RH  029%=      5-min Rain = 0
KPD2 112349Z 15013G18KT 34/14 A2998 RMK A01 T03440139  RH  029%=      5-min Rain = 0
KPD2 112350Z 13017G24KT 34/14 A2998 RMK A01 T03440139  RH  029%=      5-min Rain = 0
KPD2 112351Z 15010KT 34/14 A2999 RMK A01 T03430138  RH  029%=      5-min Rain = 0
KPD2 112352Z 15010KT 34/14 A2999 RMK A01 T03430138  RH  029%=      5-min Rain = 0
KPD2 112353Z 15011G16KT 34/14 A2999 RMK A01 T03430137  RH  029%=      5-min Rain = 0
KPD2 112354Z 14010KT 34/14 A2999 RMK A01 T03430136  RH  029%=      5-min Rain = 0
KPD2 112355Z 15010KT 34/14 A2999 RMK A01 T03440136  RH  029%=      5-min Rain = 0
KPD2 112356Z 16010KT 34/14 A2999 RMK A01 T03440136  RH  029%=      5-min Rain = 0
KPD2 112357Z 17009KT 34/14 A2999 RMK A01 T03430135  RH  029%=      5-min Rain = 0
KPD2 112358Z 17009G15KT 34/14 A2999 RMK A01 T03420135  RH  029%=      5-min Rain = 0
KPD2 112359Z 17009KT 34/14 A2999 RMK A01 T03410135  RH  029%=      5-min Rain = 0
KPD2 120000Z 13011KT 34/14 A2999 RMK A01 T03410135  RH  029%=      5-min Rain = 0
KPD2 120001Z 14012G17KT 34/14 A2999 RMK A01 T03420135  RH  029%=      5-min Rain = 0
KPD2 120002Z 16011KT 34/14 A2999 RMK A01 T03430135  RH  029%=      5-min Rain = 0
KPD2 120003Z 13013KT 34/13 A2999 RMK A01 T03420134  RH  029%=      5-min Rain = 0
KPD2 120004Z 13016KT 34/13 A2999 RMK A01 T03420134  RH  029%=      5-min Rain = 0
KPD2 120005Z 14012G17KT 34/13 A2999 RMK A01 T03420134  RH  029%=      5-min Rain = 0
KPD2 120006Z 14013KT 34/13 A2999 RMK A01 T03420134  RH  028%=      5-min Rain = 0
KPD2 120007Z 15010G15KT 34/13 A2999 RMK A01 T03430134  RH  029%=      5-min Rain = 0
KPD2 120008Z 15011KT 34/13 A2999 RMK A01 T03420134  RH  029%=      5-min Rain = 0
KPD2 120009Z 15008KT 34/13 A2999 RMK A01 T03420134  RH  029%=      5-min Rain = 0
KPD2 120010Z 16006KT 34/13 A2999 RMK A01 T03420134  RH  029%=      5-min Rain = 0
KPD2 120011Z 18008KT 34/13 A2999 RMK A01 T03420134  RH  029%=      5-min Rain = 0
KPD2 120012Z 14006KT 34/13 A2999 RMK A01 T03410134  RH  029%=      5-min Rain = 0
KPD2 120013Z 15008KT 34/13 A2999 RMK A01 T03410134  RH  029%=      5-min Rain = 0
KPD2 120014Z 15006KT 34/13 A2999 RMK A01 T03420134  RH  029%=      5-min Rain = 0
KPD2 120015Z 16009KT 34/13 A2999 RMK A01 T03420134  RH  029%=      5-min Rain = 0
KPD2 120016Z 16011KT 34/13 A2999 RMK A01 T03420134  RH  028%=      5-min Rain = 0
KPD2 120017Z 15011G18KT 34/13 A2999 RMK A01 T03410133  RH  028%=      5-min Rain = 0
KPD2 120018Z 16011G16KT 34/13 A30 RMK A01 T03400132  RH  028%=      5-min Rain = 0
KPD2 120019Z 16010G15KT 34/13 A2999 RMK A01 T03400132  RH  029%=      5-min Rain = 0
KPD2 120020Z 17011KT 34/13 A2999 RMK A01 T03400133  RH  029%=      5-min Rain = 0
KPD2 120021Z 14007KT 34/13 A2999 RMK A01 T03390133  RH  029%=      5-min Rain = 0
KPD2 120022Z 14010KT 34/13 A2999 RMK A01 T03380133  RH  029%=      5-min Rain = 0
KPD2 120023Z 13009G20KT 34/13 A2999 RMK A01 T03380133  RH  029%=      5-min Rain = 0
KPD2 120024Z 15013KT 34/13 A2999 RMK A01 T03380133  RH  029%=      5-min Rain = 0
KPD2 120025Z 14009KT 34/13 A2999 RMK A01 T03380132  RH  029%=      5-min Rain = 0
KPD2 120026Z 14009G15KT 34/13 A2999 RMK A01 T03380132  RH  029%=      5-min Rain = 0
KPD2 120027Z 15008KT 34/13 A2999 RMK A01 T03390132  RH  029%=      5-min Rain = 0
KPD2 120028Z 16008KT 34/13 A2999 RMK A01 T03390132  RH  029%=      5-min Rain = 0
KPD2 120029Z 16007KT 34/13 A2999 RMK A01 T03380132  RH  029%=      5-min Rain = 0
KPD2 120030Z 15006KT 34/13 A2999 RMK A01 T03380132  RH  029%=      5-min Rain = 0
KPD2 120031Z 16006KT 34/13 A2999 RMK A01 T03380133  RH  029%=      5-min Rain = 0
KPD2 120032Z 14010G17KT 34/13 A2999 RMK A01 T03380133  RH  029%=      5-min Rain = 0
KPD2 120033Z 15010KT 34/13 A2999 RMK A01 T03390132  RH  029%=      5-min Rain = 0
KPD2 120034Z 17008KT 34/13 A30 RMK A01 T03390132  RH  029%=      5-min Rain = 0
KPD2 120035Z 16007G13KT 34/13 A30 RMK A01 T03380132  RH  029%=      5-min Rain = 0
KPD2 120036Z 14011KT 34/13 A30 RMK A01 T03380133  RH  029%=      5-min Rain = 0
KPD2 120037Z 17012KT 34/13 A30 RMK A01 T03390132  RH  029%=      5-min Rain = 0
KPD2 120038Z 18011KT 34/13 A30 RMK A01 T03390132  RH  029%=      5-min Rain = 0
KPD2 120039Z 16008KT 34/13 A30 RMK A01 T03380132  RH  029%=      5-min Rain = 0
KPD2 120040Z 15008KT 34/13 A30 RMK A01 T03380131  RH  029%=      5-min Rain = 0
KPD2 120041Z 14010KT 34/13 A30 RMK A01 T03370131  RH  029%=      5-min Rain = 0
KPD2 120042Z 15010KT 34/13 A30 RMK A01 T03380130  RH  029%=      5-min Rain = 0
KPD2 120043Z 15010KT 34/13 A2999 RMK A01 T03380131  RH  029%=      5-min Rain = 0
KPD2 120044Z 15008KT 34/13 A2999 RMK A01 T03380131  RH  029%=      5-min Rain = 0
KPD2 120045Z 14007G12KT 34/13 A2999 RMK A01 T03380131  RH  029%=      5-min Rain = 0
KPD2 120046Z 14007KT 34/13 A2999 RMK A01 T03380131  RH  029%=      5-min Rain = 0
KPD2 120047Z 16006G11KT 34/13 A30 RMK A01 T03380131  RH  029%=      5-min Rain = 0
KPD2 120048Z 15008KT 34/13 A30 RMK A01 T03380131  RH  029%=      5-min Rain = 0
KPD2 120049Z 16012G19KT 34/13 A30 RMK A01 T03380131  RH  029%=      5-min Rain = 0
KPD2 120050Z 16012G17KT 34/13 A30 RMK A01 T03380130  RH  028%=      5-min Rain = 0
KPD2 120051Z 14008KT 34/13 A30 RMK A01 T03380130  RH  028%=      5-min Rain = 0
KPD2 120052Z 15006KT 34/13 A30 RMK A01 T03380130  RH  028%=      5-min Rain = 0
KPD2 120053Z 15006KT 34/13 A30 RMK A01 T03380130  RH  028%=      5-min Rain = 0
KPD2 120054Z 17005KT 34/13 A30 RMK A01 T03380130  RH  028%=      5-min Rain = 0
KPD2 120055Z 16004KT 34/13 A30 RMK A01 T03380130  RH  028%=      5-min Rain = 0
KPD2 120056Z 17002KT 34/13 A30 RMK A01 T03380130  RH  029%=      5-min Rain = 0
KPD2 120057Z 13003KT 34/13 A30 RMK A01 T03370130  RH  029%=      5-min Rain = 0
KPD2 120058Z 14008KT 34/13 A30 RMK A01 T03370130  RH  029%=      5-min Rain = 0
KPD2 120059Z 17006KT 34/13 A30 RMK A01 T03370129  RH  028%=      5-min Rain = 0
KPD2 120100Z 15005KT 34/13 A30 RMK A01 T03370129  RH  028%=      5-min Rain = 0
KPD2 120101Z 16008KT 34/13 A30 RMK A01 T03370129  RH  028%=      5-min Rain = 0
KPD2 120102Z 19005KT 34/13 A30 RMK A01 T03370128  RH  028%=      5-min Rain = 0
KPD2 120103Z 16004G9KT 34/13 A30 RMK A01 T03370128  RH  028%=      5-min Rain = 0
KPD2 120104Z 16008G13KT 34/13 A30 RMK A01 T03370128  RH  028%=      5-min Rain = 0
KPD2 120105Z 13007KT 34/13 A30 RMK A01 T03370128  RH  028%=      5-min Rain = 0
KPD2 120106Z 13008G13KT 34/13 A30 RMK A01 T03370128  RH  028%=      5-min Rain = 0
KPD2 120107Z 14010G15KT 34/13 A30 RMK A01 T03380127  RH  028%=      5-min Rain = 0
KPD2 120108Z 18011KT 34/13 A30 RMK A01 T03380127  RH  028%=      5-min Rain = 0
KPD2 120109Z 22008KT 34/13 A30 RMK A01 T03380127  RH  028%=      5-min Rain = 0
KPD2 120110Z 15004G10KT 34/13 A30 RMK A01 T03380127  RH  028%=      5-min Rain = 0
KPD2 120111Z 15008KT 34/13 A30 RMK A01 T03380127  RH  028%=      5-min Rain = 0
KPD2 120112Z 16006KT 34/13 A30 RMK A01 T03380127  RH  028%=      5-min Rain = 0
KPD2 120113Z 13008KT 34/13 A30 RMK A01 T03380127  RH  028%=      5-min Rain = 0
KPD2 120114Z 14010KT 34/13 A30 RMK A01 T03380127  RH  028%=      5-min Rain = 0
KPD2 120115Z 16011KT 34/13 A30 RMK A01 T03390127  RH  028%=      5-min Rain = 0
KPD2 120116Z 14010G15KT 34/13 A30 RMK A01 T03390127  RH  028%=      5-min Rain = 0
KPD2 120117Z 15009KT 34/13 A30 RMK A01 T03380127  RH  028%=      5-min Rain = 0
KPD2 120118Z 16007KT 34/13 A30 RMK A01 T03380127  RH  028%=      5-min Rain = 0
KPD2 120119Z 14007KT 34/13 A30 RMK A01 T03380127  RH  028%=      5-min Rain = 0
KPD2 120120Z 15007KT 34/13 A30 RMK A01 T03380127  RH  028%=      5-min Rain = 0
KPD2 120121Z 16010KT 34/13 A30 RMK A01 T03370127  RH  028%=      5-min Rain = 0
KPD2 120122Z 15011KT 34/13 A30 RMK A01 T03370127  RH  028%=      5-min Rain = 0
KPD2 120123Z 15014KT 34/13 A30 RMK A01 T03370127  RH  028%=      5-min Rain = 0
KPD2 120124Z 15008KT 34/13 A30 RMK A01 T03360127  RH  028%=      5-min Rain = 0
KPD2 120125Z 15007KT 34/13 A30 RMK A01 T03360127  RH  028%=      5-min Rain = 0
KPD2 120126Z 14008G13KT 34/13 A30 RMK A01 T03360128  RH  028%=      5-min Rain = 0
KPD2 120127Z 14009KT 34/13 A30 RMK A01 T03360128  RH  028%=      5-min Rain = 0
KPD2 120128Z 16011KT 34/13 A30 RMK A01 T03350128  RH  028%=      5-min Rain = 0
KPD2 120129Z 15007G12KT 34/13 A30 RMK A01 T03350128  RH  029%=      5-min Rain = 0
KPD2 120130Z 16010KT 34/13 A30 RMK A01 T03350128  RH  029%=      5-min Rain = 0
KPD2 120131Z 16009KT 34/13 A30 RMK A01 T03350128  RH  029%=      5-min Rain = 0
KPD2 120132Z 16012G17KT 33/13 A30 RMK A01 T03340129  RH  029%=      5-min Rain = 0
KPD2 120133Z 17011KT 33/13 A30 RMK A01 T03340129  RH  029%=      5-min Rain = 0
KPD2 120134Z 14010KT 33/13 A30 RMK A01 T03330129  RH  029%=      5-min Rain = 0
KPD2 120135Z 15010KT 33/13 A30 RMK A01 T03330129  RH  029%=      5-min Rain = 0
KPD2 120136Z 14011KT 33/13 A30 RMK A01 T03320129  RH  029%=      5-min Rain = 0
KPD2 120137Z 15008KT 33/13 A30 RMK A01 T03320130  RH  029%=      5-min Rain = 0
KPD2 120138Z 13011KT 33/13 A30 RMK A01 T03320130  RH  029%=      5-min Rain = 0
KPD2 120139Z 14011KT 33/13 A30 RMK A01 T03310130  RH  030%=      5-min Rain = 0
KPD2 120140Z 15008KT 33/13 A30 RMK A01 T03310130  RH  030%=      5-min Rain = 0
KPD2 120141Z 16009KT 33/13 A30 RMK A01 T03300130  RH  030%=      5-min Rain = 0
KPD2 120142Z 13012KT 33/13 A30 RMK A01 T03300130  RH  030%=      5-min Rain = 0
KPD2 120143Z 14012KT 33/13 A30 RMK A01 T03290128  RH  030%=      5-min Rain = 0
KPD2 120144Z 14012KT 33/13 A30 RMK A01 T03290128  RH  030%=      5-min Rain = 0
KPD2 120145Z 14011KT 33/13 A30 RMK A01 T03290128  RH  030%=      5-min Rain = 0
KPD2 120146Z 14009KT 33/13 A30 RMK A01 T03290128  RH  030%=      5-min Rain = 0
KPD2 120147Z 14011KT 33/13 A30 RMK A01 T03290129  RH  030%=      5-min Rain = 0
KPD2 120148Z 15010KT 33/13 A3001 RMK A01 T03280128  RH  030%=      5-min Rain = 0
KPD2 120149Z 14009KT 33/13 A3001 RMK A01 T03280129  RH  030%=      5-min Rain = 0
KPD2 120150Z 15010KT 33/13 A3001 RMK A01 T03280128  RH  030%=      5-min Rain = 0
KPD2 120151Z 14009KT 33/13 A3001 RMK A01 T03280128  RH  030%=      5-min Rain = 0
KPD2 120152Z 14009KT 33/13 A3001 RMK A01 T03280129  RH  030%=      5-min Rain = 0
KPD2 120153Z 15009KT 33/13 A3001 RMK A01 T03270129  RH  030%=      5-min Rain = 0
KPD2 120154Z 17006G11KT 33/13 A3001 RMK A01 T03270128  RH  030%=      5-min Rain = 0
KPD2 120155Z 16008KT 33/13 A3001 RMK A01 T03270129  RH  030%=      5-min Rain = 0
KPD2 120156Z 16005KT 33/13 A3001 RMK A01 T03270129  RH  030%=      5-min Rain = 0
KPD2 120157Z 15007KT 33/13 A3001 RMK A01 T03260129  RH  030%=      5-min Rain = 0
KPD2 120158Z 15008KT 33/13 A3001 RMK A01 T03260129  RH  030%=      5-min Rain = 0
KPD2 120159Z 16005KT 33/13 A3001 RMK A01 T03250129  RH  030%=      5-min Rain = 0
KPD2 120200Z 15006KT 33/13 A3001 RMK A01 T03250128  RH  030%=      5-min Rain = 0
KPD2 120201Z 14009KT 33/13 A3001 RMK A01 T03250128  RH  030%=      5-min Rain = 0
KPD2 120202Z 16008KT 33/13 A3001 RMK A01 T03250129  RH  030%=      5-min Rain = 0
KPD2 120203Z 14006KT 33/13 A3001 RMK A01 T03250128  RH  030%=      5-min Rain = 0
KPD2 120204Z 13008KT 33/13 A3001 RMK A01 T03250129  RH  030%=      5-min Rain = 0
KPD2 120205Z 13007KT 33/13 A3001 RMK A01 T03250129  RH  030%=      5-min Rain = 0
KPD2 120206Z 13008KT 33/13 A3001 RMK A01 T03250129  RH  030%=      5-min Rain = 0
KPD2 120207Z 13008KT 32/13 A3001 RMK A01 T03240129  RH  031%=      5-min Rain = 0
KPD2 120208Z 13008KT 32/13 A3001 RMK A01 T03230130  RH  031%=      5-min Rain = 0
KPD2 120209Z 13009G14KT 32/13 A3001 RMK A01 T03230130  RH  031%=      5-min Rain = 0
KPD2 120210Z 14009KT 32/13 A3001 RMK A01 T03230129  RH  031%=      5-min Rain = 0
KPD2 120211Z 13007KT 32/13 A3001 RMK A01 T03230129  RH  031%=      5-min Rain = 0
KPD2 120212Z 14007KT 32/13 A3001 RMK A01 T03230129  RH  031%=      5-min Rain = 0
KPD2 120213Z 14007KT 32/13 A3001 RMK A01 T03230129  RH  031%=      5-min Rain = 0
KPD2 120214Z 13008KT 32/13 A3001 RMK A01 T03230129  RH  031%=      5-min Rain = 0
KPD2 120215Z 14007KT 32/13 A3002 RMK A01 T03230129  RH  031%=      5-min Rain = 0
KPD2 120216Z 15008KT 32/13 A3002 RMK A01 T03230129  RH  031%=      5-min Rain = 0
KPD2 120217Z 13007KT 32/13 A3002 RMK A01 T03230129  RH  031%=      5-min Rain = 0
KPD2 120218Z 13008KT 32/13 A3002 RMK A01 T03230129  RH  031%=      5-min Rain = 0
KPD2 120219Z 13008KT 32/13 A3002 RMK A01 T03230129  RH  031%=      5-min Rain = 0
KPD2 120220Z 14006KT 32/13 A3002 RMK A01 T03230129  RH  031%=      5-min Rain = 0
KPD2 120221Z 13006KT 32/13 A3002 RMK A01 T03230129  RH  031%=      5-min Rain = 0
KPD2 120222Z 13007KT 32/13 A3002 RMK A01 T03230129  RH  031%=      5-min Rain = 0
KPD2 120223Z 13007KT 32/13 A3002 RMK A01 T03220129  RH  031%=      5-min Rain = 0
KPD2 120224Z 14009KT 32/13 A3002 RMK A01 T03220129  RH  031%=      5-min Rain = 0
KPD2 120225Z 14006KT 32/13 A3002 RMK A01 T03220129  RH  031%=      5-min Rain = 0
KPD2 120226Z 14006KT 32/13 A3002 RMK A01 T03220128  RH  031%=      5-min Rain = 0
KPD2 120227Z 14007KT 32/13 A3002 RMK A01 T03220128  RH  031%=      5-min Rain = 0
KPD2 120228Z 13005KT 32/13 A3002 RMK A01 T03220128  RH  031%=      5-min Rain = 0
KPD2 120229Z 13007KT 32/13 A3002 RMK A01 T03220128  RH  031%=      5-min Rain = 0
KPD2 120230Z 14006KT 32/13 A3002 RMK A01 T03220129  RH  031%=      5-min Rain = 0
KPD2 120231Z 15007KT 32/13 A3002 RMK A01 T03220128  RH  031%=      5-min Rain = 0
KPD2 120232Z 14004KT 32/13 A3002 RMK A01 T03220128  RH  031%=      5-min Rain = 0
KPD2 120233Z 14006KT 32/13 A3002 RMK A01 T03210129  RH  031%=      5-min Rain = 0
KPD2 120234Z 13007KT 32/13 A3003 RMK A01 T03210128  RH  031%=      5-min Rain = 0
KPD2 120235Z 15006KT 32/13 A3003 RMK A01 T03210128  RH  031%=      5-min Rain = 0
KPD2 120236Z 13006KT 32/13 A3003 RMK A01 T03210128  RH  031%=      5-min Rain = 0
KPD2 120237Z 17007KT 32/13 A3003 RMK A01 T03210128  RH  031%=      5-min Rain = 0
KPD2 120238Z 13005KT 32/13 A3003 RMK A01 T03210128  RH  031%=      5-min Rain = 0
KPD2 120239Z 13007KT 32/13 A3003 RMK A01 T03210128  RH  031%=      5-min Rain = 0
KPD2 120240Z 15006KT 32/13 A3003 RMK A01 T03200128  RH  031%=      5-min Rain = 0
KPD2 120241Z 13007KT 32/13 A3003 RMK A01 T03200128  RH  031%=      5-min Rain = 0
KPD2 120242Z 14007KT 32/13 A3003 RMK A01 T03200128  RH  031%=      5-min Rain = 0
KPD2 120243Z 14007KT 32/13 A3003 RMK A01 T03200128  RH  031%=      5-min Rain = 0
KPD2 120244Z 14006KT 32/13 A3003 RMK A01 T03200128  RH  031%=      5-min Rain = 0
KPD2 120245Z 14007KT 32/13 A3003 RMK A01 T03200128  RH  031%=      5-min Rain = 0
KPD2 120246Z 14007KT 32/13 A3003 RMK A01 T03200128  RH  031%=      5-min Rain = 0
KPD2 120247Z 14007KT 32/13 A3003 RMK A01 T03200128  RH  031%=      5-min Rain = 0
KPD2 120248Z 14007KT 32/13 A3003 RMK A01 T03200128  RH  031%=      5-min Rain = 0
KPD2 120249Z 13006KT 32/13 A3003 RMK A01 T03200128  RH  031%=      5-min Rain = 0
KPD2 120250Z 14006KT 32/13 A3003 RMK A01 T03200128  RH  031%=      5-min Rain = 0
KPD2 120251Z 13007KT 32/13 A3003 RMK A01 T03200128  RH  031%=      5-min Rain = 0
KPD2 120252Z 15009KT 32/13 A3004 RMK A01 T03200128  RH  031%=      5-min Rain = 0
KPD2 120253Z 13008KT 32/13 A3004 RMK A01 T03200128  RH  031%=      5-min Rain = 0
KPD2 120254Z 13009KT 32/13 A3004 RMK A01 T03200128  RH  031%=      5-min Rain = 0
KPD2 120255Z 14008KT 32/13 A3004 RMK A01 T03200128  RH  031%=      5-min Rain = 0
KPD2 120256Z 14010KT 32/13 A3004 RMK A01 T03200128  RH  031%=      5-min Rain = 0
KPD2 120257Z 15008KT 32/13 A3004 RMK A01 T03200128  RH  031%=      5-min Rain = 0
KPD2 120258Z 13007KT 32/13 A3004 RMK A01 T03200129  RH  031%=      5-min Rain = 0
KPD2 120259Z 14007KT 32/13 A3004 RMK A01 T03190129  RH  031%=      5-min Rain = 0
KPD2 120300Z 14005KT 32/13 A3004 RMK A01 T03190129  RH  031%=      5-min Rain = 0
KPD2 120301Z 14006KT 32/13 A3004 RMK A01 T03190129  RH  031%=      5-min Rain = 0
KPD2 120302Z 15007KT 32/13 A3004 RMK A01 T03190129  RH  031%=      5-min Rain = 0
KPD2 120303Z 15007KT 32/13 A3004 RMK A01 T03180129  RH  032%=      5-min Rain = 0
KPD2 120304Z 14006KT 32/13 A3004 RMK A01 T03180129  RH  032%=      5-min Rain = 0
KPD2 120305Z 14005KT 32/13 A3004 RMK A01 T03180129  RH  032%=      5-min Rain = 0
KPD2 120306Z 13006KT 32/13 A3004 RMK A01 T03180129  RH  032%=      5-min Rain = 0
KPD2 120307Z 13008KT 32/13 A3004 RMK A01 T03170129  RH  032%=      5-min Rain = 0
KPD2 120308Z 13007KT 32/13 A3004 RMK A01 T03170129  RH  032%=      5-min Rain = 0
KPD2 120309Z 14007KT 32/13 A3004 RMK A01 T03170129  RH  032%=      5-min Rain = 0
KPD2 120310Z 14006KT 32/13 A3004 RMK A01 T03170129  RH  032%=      5-min Rain = 0
KPD2 120311Z 13006KT 32/13 A3004 RMK A01 T03170130  RH  032%=      5-min Rain = 0
KPD2 120312Z 13004KT 32/13 A3004 RMK A01 T03170130  RH  032%=      5-min Rain = 0
KPD2 120313Z 13005KT 32/13 A3004 RMK A01 T03160129  RH  032%=      5-min Rain = 0
KPD2 120314Z 13007KT 32/13 A3004 RMK A01 T03160129  RH  032%=      5-min Rain = 0
KPD2 120315Z 13007KT 32/13 A3004 RMK A01 T03150129  RH  032%=      5-min Rain = 0
KPD2 120316Z 13006KT 32/13 A3004 RMK A01 T03150130  RH  032%=      5-min Rain = 0
KPD2 120317Z 12008KT 32/13 A3004 RMK A01 T03150130  RH  032%=      5-min Rain = 0
KPD2 120318Z 12006KT 32/13 A3005 RMK A01 T03150130  RH  032%=      5-min Rain = 0
KPD2 120319Z 12008KT 31/13 A3005 RMK A01 T03140130  RH  032%=      5-min Rain = 0
KPD2 120320Z 13007KT 31/13 A3005 RMK A01 T03140130  RH  032%=      5-min Rain = 0
KPD2 120321Z 12007KT 31/13 A3005 RMK A01 T03140130  RH  032%=      5-min Rain = 0
KPD2 120322Z 12006KT 31/13 A3005 RMK A01 T03140130  RH  032%=      5-min Rain = 0
KPD2 120323Z 14006KT 31/13 A3005 RMK A01 T03140130  RH  032%=      5-min Rain = 0
KPD2 120324Z 14005KT 31/13 A3005 RMK A01 T03140130  RH  033%=      5-min Rain = 0
KPD2 120325Z 13006KT 31/13 A3005 RMK A01 T03140130  RH  033%=      5-min Rain = 0
KPD2 120326Z 12006KT 31/13 A3005 RMK A01 T03140131  RH  033%=      5-min Rain = 0
KPD2 120327Z 13007KT 31/13 A3005 RMK A01 T03140131  RH  033%=      5-min Rain = 0
KPD2 120328Z 13007KT 31/13 A3005 RMK A01 T03140131  RH  033%=      5-min Rain = 0
KPD2 120329Z 13007KT 31/13 A3005 RMK A01 T03140131  RH  033%=      5-min Rain = 0
KPD2 120330Z 13007KT 31/13 A3005 RMK A01 T03140131  RH  033%=      5-min Rain = 0
KPD2 120331Z 14006KT 31/13 A3005 RMK A01 T03140131  RH  033%=      5-min Rain = 0
KPD2 120332Z 12008KT 31/13 A3005 RMK A01 T03130131  RH  033%=      5-min Rain = 0
KPD2 120333Z 13008KT 31/13 A3005 RMK A01 T03130131  RH  033%=      5-min Rain = 0
KPD2 120334Z 12007KT 31/13 A3005 RMK A01 T03130131  RH  033%=      5-min Rain = 0
KPD2 120335Z 13008KT 31/13 A3005 RMK A01 T03130132  RH  033%=      5-min Rain = 0
KPD2 120336Z 13006KT 31/13 A3005 RMK A01 T03130132  RH  033%=      5-min Rain = 0
KPD2 120337Z 12008KT 31/13 A3005 RMK A01 T03130132  RH  033%=      5-min Rain = 0
KPD2 120338Z 13007KT 31/13 A3005 RMK A01 T03130132  RH  033%=      5-min Rain = 0
KPD2 120339Z 13006KT 31/13 A3005 RMK A01 T03120132  RH  033%=      5-min Rain = 0
KPD2 120340Z 14006KT 31/13 A3005 RMK A01 T03120132  RH  033%=      5-min Rain = 0
KPD2 120341Z 14006KT 31/13 A3005 RMK A01 T03120132  RH  033%=      5-min Rain = 0
KPD2 120342Z 14007KT 31/13 A3005 RMK A01 T03120132  RH  033%=      5-min Rain = 0
KPD2 120343Z 15005KT 31/13 A3005 RMK A01 T03120132  RH  033%=      5-min Rain = 0
KPD2 120344Z 14005KT 31/13 A3005 RMK A01 T03120132  RH  033%=      5-min Rain = 0
KPD2 120345Z 15005KT 31/13 A3005 RMK A01 T03120133  RH  034%=      5-min Rain = 0
KPD2 120346Z 14005KT 31/13 A3005 RMK A01 T03110134  RH  034%=      5-min Rain = 0
KPD2 120347Z 14006KT 31/13 A3005 RMK A01 T03110134  RH  034%=      5-min Rain = 0
KPD2 120348Z 15006KT 31/13 A3005 RMK A01 T03100134  RH  034%=      5-min Rain = 0
KPD2 120349Z 14005KT 31/13 A3005 RMK A01 T03110134  RH  034%=      5-min Rain = 0
KPD2 120350Z 15006KT 31/13 A3005 RMK A01 T03110134  RH  034%=      5-min Rain = 0
KPD2 120351Z 15007KT 31/13 A3006 RMK A01 T03110134  RH  034%=      5-min Rain = 0
KPD2 120352Z 14005KT 31/13 A3006 RMK A01 T03100134  RH  034%=      5-min Rain = 0
KPD2 120353Z 14007G12KT 31/13 A3006 RMK A01 T03110134  RH  034%=      5-min Rain = 0
KPD2 120354Z 16007KT 31/13 A3006 RMK A01 T03110134  RH  034%=      5-min Rain = 0
KPD2 120355Z 14006KT 31/13 A3006 RMK A01 T03110133  RH  034%=      5-min Rain = 0
KPD2 120356Z 14007KT 31/13 A3006 RMK A01 T03110133  RH  034%=      5-min Rain = 0
KPD2 120357Z 15008KT 31/13 A3006 RMK A01 T03120134  RH  034%=      5-min Rain = 0
KPD2 120358Z 16006KT 31/13 A3006 RMK A01 T03120134  RH  034%=      5-min Rain = 0
KPD2 120359Z 16009KT 31/13 A3006 RMK A01 T03120134  RH  034%=      5-min Rain = 0
KPD2 120400Z 17007KT 31/13 A3006 RMK A01 T03130134  RH  034%=      5-min Rain = 0
KPD2 120401Z 15004G9KT 31/13 A3006 RMK A01 T03130134  RH  034%=      5-min Rain = 0
KPD2 120402Z 16006KT 31/13 A3006 RMK A01 T03130134  RH  034%=      5-min Rain = 0
KPD2 120403Z 18005KT 31/13 A3006 RMK A01 T03130134  RH  034%=      5-min Rain = 0
KPD2 120404Z 16003KT 31/14 A3006 RMK A01 T03130135  RH  034%=      5-min Rain = 0
KPD2 120405Z 15004KT 31/14 A3006 RMK A01 T03130135  RH  034%=      5-min Rain = 0
KPD2 120406Z 15009KT 31/14 A3006 RMK A01 T03120135  RH  034%=      5-min Rain = 0
KPD2 120407Z 21003KT 31/14 A3006 RMK A01 T03110137  RH  035%=      5-min Rain = 0
KPD2 120408Z 21004KT 31/14 A3006 RMK A01 T03100137  RH  035%=      5-min Rain = 0
KPD2 120409Z 20005KT 31/14 A3006 RMK A01 T03100137  RH  035%=      5-min Rain = 0
KPD2 120410Z 18005KT 31/14 A3006 RMK A01 T03090137  RH  035%=      5-min Rain = 0
KPD2 120411Z 20005KT 31/14 A3006 RMK A01 T03080138  RH  035%=      5-min Rain = 0
KPD2 120412Z 23005KT 31/14 A3006 RMK A01 T03080138  RH  036%=      5-min Rain = 0
KPD2 120413Z 20005KT 31/14 A3006 RMK A01 T03070138  RH  036%=      5-min Rain = 0
KPD2 120414Z 19004KT 31/14 A3006 RMK A01 T03060138  RH  036%=      5-min Rain = 0
KPD2 120415Z 25003KT 31/14 A3006 RMK A01 T03070138  RH  036%=      5-min Rain = 0
KPD2 120416Z 22006G13KT 31/14 A3006 RMK A01 T03060139  RH  036%=      5-min Rain = 0
KPD2 120417Z 21010KT 31/14 A3006 RMK A01 T03060139  RH  036%=      5-min Rain = 0
KPD2 120418Z 19006KT 31/14 A3006 RMK A01 T03050140  RH  036%=      5-min Rain = 0
KPD2 120419Z 18004KT 31/14 A3006 RMK A01 T03050140  RH  036%=      5-min Rain = 0
KPD2 120420Z 14005KT 31/14 A3007 RMK A01 T03050140  RH  037%=      5-min Rain = 0
KPD2 120421Z 15006KT 31/14 A3007 RMK A01 T03050140  RH  037%=      5-min Rain = 0
KPD2 120422Z 18003KT 31/14 A3007 RMK A01 T03050141  RH  037%=      5-min Rain = 0
KPD2 120423Z 17005KT 30/14 A3007 RMK A01 T03040141  RH  037%=      5-min Rain = 0
KPD2 120424Z 19005G10KT 30/14 A3006 RMK A01 T03040141  RH  037%=      5-min Rain = 0
KPD2 120425Z 17005KT 30/14 A3006 RMK A01 T03040141  RH  037%=      5-min Rain = 0
KPD2 120426Z 17004KT 30/14 A3006 RMK A01 T03040141  RH  037%=      5-min Rain = 0
KPD2 120427Z 13004KT 30/14 A3006 RMK A01 T03040141  RH  037%=      5-min Rain = 0
KPD2 120428Z 12004G10KT 30/14 A3006 RMK A01 T03030141  RH  037%=      5-min Rain = 0
KPD2 120429Z 13006KT 30/14 A3006 RMK A01 T03030141  RH  037%=      5-min Rain = 0
KPD2 120430Z 14003KT 30/14 A3006 RMK A01 T03030142  RH  037%=      5-min Rain = 0
KPD2 120431Z 13002KT 30/14 A3006 RMK A01 T03030142  RH  037%=      5-min Rain = 0
KPD2 120432Z 11006KT 30/14 A3006 RMK A01 T03030142  RH  037%=      5-min Rain = 0
KPD2 120433Z 13009KT 30/14 A3006 RMK A01 T03030142  RH  038%=      5-min Rain = 0
KPD2 120434Z 15005KT 30/14 A3006 RMK A01 T03030143  RH  038%=      5-min Rain = 0
KPD2 120435Z 16004KT 30/14 A3006 RMK A01 T03030143  RH  038%=      5-min Rain = 0
KPD2 120436Z 14003KT 30/14 A3006 RMK A01 T03020143  RH  038%=      5-min Rain = 0
KPD2 120437Z 12005KT 30/14 A3006 RMK A01 T03020143  RH  038%=      5-min Rain = 0
KPD2 120438Z 12006KT 30/14 A3006 RMK A01 T03020143  RH  038%=      5-min Rain = 0
KPD2 120439Z 12006KT 30/14 A3006 RMK A01 T03010143  RH  038%=      5-min Rain = 0
KPD2 120440Z 14005KT 30/14 A3006 RMK A01 T03000143  RH  038%=      5-min Rain = 0
KPD2 120441Z 17006KT 30/14 A3006 RMK A01 T03010144  RH  038%=      5-min Rain = 0
KPD2 120442Z 15003KT 30/14 A3006 RMK A01 T03010144  RH  038%=      5-min Rain = 0
KPD2 120443Z 13003KT 30/14 A3006 RMK A01 T03010144  RH  038%=      5-min Rain = 0
KPD2 120444Z 14003KT 30/14 A3006 RMK A01 T03000143  RH  038%=      5-min Rain = 0
KPD2 120445Z 13002KT 30/14 A3006 RMK A01 T03000143  RH  038%=      5-min Rain = 0
KPD2 120446Z 17001KT 30/14 A3006 RMK A01 T03000143  RH  038%=      5-min Rain = 0
KPD2 120447Z 12003KT 30/14 A3006 RMK A01 T03000143  RH  038%=      5-min Rain = 0
KPD2 120448Z 13004KT 30/14 A3006 RMK A01 T03000143  RH  038%=      5-min Rain = 0
KPD2 120449Z 13004KT 30/14 A3006 RMK A01 T03000143  RH  038%=      5-min Rain = 0
KPD2 120450Z 12005KT 30/14 A3006 RMK A01 T02990142  RH  038%=      5-min Rain = 0
KPD2 120451Z 12004KT 30/14 A3006 RMK A01 T02990141  RH  038%=      5-min Rain = 0
KPD2 120452Z 12004KT 30/14 A3006 RMK A01 T02990141  RH  038%=      5-min Rain = 0
KPD2 120453Z 11004KT 30/14 A3006 RMK A01 T02980140  RH  038%=      5-min Rain = 0
KPD2 120454Z 12005KT 30/14 A3006 RMK A01 T02980140  RH  038%=      5-min Rain = 0
KPD2 120455Z 12004KT 30/14 A3006 RMK A01 T02970139  RH  038%=      5-min Rain = 0
KPD2 120456Z 12005KT 30/14 A3007 RMK A01 T02980139  RH  038%=      5-min Rain = 0
KPD2 120457Z 13005KT 30/14 A3007 RMK A01 T02970140  RH  038%=      5-min Rain = 0
KPD2 120458Z 13005KT 30/14 A3007 RMK A01 T02970140  RH  038%=      5-min Rain = 0
KPD2 120459Z 10004KT 30/14 A3007 RMK A01 T02970140  RH  038%=      5-min Rain = 0
KPD2 120500Z 10005KT 30/14 A3007 RMK A01 T02970140  RH  038%=      5-min Rain = 0

Page generated in 0.0376 seconds.